<?xml version='1.0' encoding='UTF-8'?><gpx version="1.1" creator="JPX - https://github.com/jenetics/jpx" xmlns="http://www.topografix.com/GPX/1/1"><trk><trkseg><trkpt lat="45.12411" lon="7.4145917"><ele>572.0</ele><time>2026-03-29T10:49:45.158Z</time></trkpt><trkpt lat="45.1241267" lon="7.4144517"><ele>572.0</ele><time>2026-03-29T10:50:08.158Z</time></trkpt><trkpt lat="45.1241817" lon="7.4145667"><ele>572.0</ele><time>2026-03-29T10:52:12.157Z</time></trkpt><trkpt lat="45.1241933" lon="7.414675"><ele>572.0</ele><time>2026-03-29T10:52:14.157Z</time></trkpt><trkpt lat="45.1241967" lon="7.414795"><ele>572.0</ele><time>2026-03-29T10:52:16.157Z</time></trkpt><trkpt lat="45.1241483" lon="7.41493"><ele>572.5</ele><time>2026-03-29T10:52:18.157Z</time></trkpt><trkpt lat="45.1241183" lon="7.41501"><ele>573.0</ele><time>2026-03-29T10:52:19.156Z</time></trkpt><trkpt lat="45.1240817" lon="7.4150867"><ele>573.5</ele><time>2026-03-29T10:52:20.157Z</time></trkpt><trkpt lat="45.123995" lon="7.4152133"><ele>574.0</ele><time>2026-03-29T10:52:22.158Z</time></trkpt><trkpt lat="45.1239283" lon="7.4153317"><ele>574.5</ele><time>2026-03-29T10:52:24.157Z</time></trkpt><trkpt lat="45.12387" lon="7.4154233"><ele>575.0</ele><time>2026-03-29T10:52:26.157Z</time></trkpt><trkpt lat="45.12378" lon="7.4154183"><ele>569.8333333333333</ele><time>2026-03-29T10:52:29.157Z</time></trkpt><trkpt lat="45.1237467" lon="7.4153383"><ele>564.6666666666666</ele><time>2026-03-29T10:52:31.158Z</time></trkpt><trkpt lat="45.1237317" lon="7.4152067"><ele>559.5</ele><time>2026-03-29T10:52:33.158Z</time></trkpt><trkpt lat="45.123715" lon="7.41508"><ele>554.3333333333334</ele><time>2026-03-29T10:52:35.156Z</time></trkpt><trkpt lat="45.12371" lon="7.414955"><ele>549.1666666666667</ele><time>2026-03-29T10:52:37.156Z</time></trkpt><trkpt lat="45.1237283" lon="7.4148083"><ele>544.0</ele><time>2026-03-29T10:52:39.158Z</time></trkpt><trkpt lat="45.1237033" lon="7.4146867"><ele>543.4</ele><time>2026-03-29T10:52:40.156Z</time></trkpt><trkpt lat="45.1236733" lon="7.4145533"><ele>542.8</ele><time>2026-03-29T10:52:41.156Z</time></trkpt><trkpt lat="45.1236467" lon="7.4144217"><ele>542.2</ele><time>2026-03-29T10:52:42.156Z</time></trkpt><trkpt lat="45.123625" lon="7.4142883"><ele>541.6</ele><time>2026-03-29T10:52:43.157Z</time></trkpt><trkpt lat="45.1236067" lon="7.4141433"><ele>541.0</ele><time>2026-03-29T10:52:44.157Z</time></trkpt><trkpt lat="45.1235883" lon="7.4139817"><ele>539.75</ele><time>2026-03-29T10:52:45.156Z</time></trkpt><trkpt lat="45.1235733" lon="7.4138017"><ele>538.5</ele><time>2026-03-29T10:52:46.157Z</time></trkpt><trkpt lat="45.12357" lon="7.4136317"><ele>537.25</ele><time>2026-03-29T10:52:47.157Z</time></trkpt><trkpt lat="45.12357" lon="7.4134583"><ele>536.0</ele><time>2026-03-29T10:52:48.159Z</time></trkpt><trkpt lat="45.1235633" lon="7.4132933"><ele>536.0</ele><time>2026-03-29T10:52:49.159Z</time></trkpt><trkpt lat="45.123555" lon="7.4131467"><ele>536.0</ele><time>2026-03-29T10:52:50.159Z</time></trkpt><trkpt lat="45.1235467" lon="7.4130167"><ele>536.0</ele><time>2026-03-29T10:52:51.159Z</time></trkpt><trkpt lat="45.1235433" lon="7.412895"><ele>536.0</ele><time>2026-03-29T10:52:52.159Z</time></trkpt><trkpt lat="45.123535" lon="7.4127717"><ele>536.0</ele><time>2026-03-29T10:52:53.159Z</time></trkpt><trkpt lat="45.123515" lon="7.4126483"><ele>535.6666666666666</ele><time>2026-03-29T10:52:54.159Z</time></trkpt><trkpt lat="45.1234867" lon="7.4125233"><ele>535.3333333333333</ele><time>2026-03-29T10:52:55.159Z</time></trkpt><trkpt lat="45.1234483" lon="7.4124133"><ele>535.0</ele><time>2026-03-29T10:52:56.16Z</time></trkpt><trkpt lat="45.1234017" lon="7.4123067"><ele>534.6666666666666</ele><time>2026-03-29T10:52:57.159Z</time></trkpt><trkpt lat="45.12335" lon="7.4122067"><ele>534.3333333333334</ele><time>2026-03-29T10:52:58.159Z</time></trkpt><trkpt lat="45.1232917" lon="7.412135"><ele>534.0</ele><time>2026-03-29T10:52:59.159Z</time></trkpt><trkpt lat="45.1232317" lon="7.4120483"><ele>528.6</ele><time>2026-03-29T10:53:00.16Z</time></trkpt><trkpt lat="45.123185" lon="7.411935"><ele>523.2</ele><time>2026-03-29T10:53:01.158Z</time></trkpt><trkpt lat="45.123145" lon="7.4118183"><ele>517.8000000000001</ele><time>2026-03-29T10:53:02.156Z</time></trkpt><trkpt lat="45.1231" lon="7.4116733"><ele>512.4</ele><time>2026-03-29T10:53:03.158Z</time></trkpt><trkpt lat="45.12305" lon="7.4115233"><ele>507.0</ele><time>2026-03-29T10:53:04.157Z</time></trkpt><trkpt lat="45.1230033" lon="7.4113683"><ele>507.20000000000005</ele><time>2026-03-29T10:53:05.157Z</time></trkpt><trkpt lat="45.122955" lon="7.41122"><ele>507.40000000000003</ele><time>2026-03-29T10:53:06.157Z</time></trkpt><trkpt lat="45.12292" lon="7.411065"><ele>507.59999999999997</ele><time>2026-03-29T10:53:07.159Z</time></trkpt><trkpt lat="45.1228933" lon="7.4109367"><ele>507.79999999999995</ele><time>2026-03-29T10:53:08.159Z</time></trkpt><trkpt lat="45.1228783" lon="7.4108283"><ele>508.0</ele><time>2026-03-29T10:53:09.159Z</time></trkpt><trkpt lat="45.12285" lon="7.4107317"><ele>508.00000000000006</ele><time>2026-03-29T10:53:10.157Z</time></trkpt><trkpt lat="45.122815" lon="7.4106517"><ele>508.0</ele><time>2026-03-29T10:53:11.157Z</time></trkpt><trkpt lat="45.12278" lon="7.4105667"><ele>508.0</ele><time>2026-03-29T10:53:12.157Z</time></trkpt><trkpt lat="45.122745" lon="7.4104867"><ele>508.0</ele><time>2026-03-29T10:53:13.156Z</time></trkpt><trkpt lat="45.1226933" lon="7.4103717"><ele>508.00000000000006</ele><time>2026-03-29T10:53:15.156Z</time></trkpt><trkpt lat="45.122655" lon="7.4102917"><ele>508.0</ele><time>2026-03-29T10:53:17.157Z</time></trkpt><trkpt lat="45.122625" lon="7.410165"><ele>508.0</ele><time>2026-03-29T10:53:19.159Z</time></trkpt><trkpt lat="45.122605" lon="7.41007"><ele>507.99999999999994</ele><time>2026-03-29T10:53:20.159Z</time></trkpt><trkpt lat="45.1225783" lon="7.4099517"><ele>507.99999999999994</ele><time>2026-03-29T10:53:21.17Z</time></trkpt><trkpt lat="45.122535" lon="7.4098167"><ele>508.0</ele><time>2026-03-29T10:53:22.16Z</time></trkpt><trkpt lat="45.1224817" lon="7.4096717"><ele>508.0</ele><time>2026-03-29T10:53:23.157Z</time></trkpt><trkpt lat="45.1224217" lon="7.4095317"><ele>503.75</ele><time>2026-03-29T10:53:24.162Z</time></trkpt><trkpt lat="45.1223617" lon="7.4093933"><ele>499.5</ele><time>2026-03-29T10:53:25.162Z</time></trkpt><trkpt lat="45.1222983" lon="7.4092533"><ele>495.25</ele><time>2026-03-29T10:53:26.16Z</time></trkpt><trkpt lat="45.12223" lon="7.4091167"><ele>491.0</ele><time>2026-03-29T10:53:27.16Z</time></trkpt><trkpt lat="45.12216" lon="7.408985"><ele>491.0</ele><time>2026-03-29T10:53:28.157Z</time></trkpt><trkpt lat="45.1220967" lon="7.408855"><ele>491.0</ele><time>2026-03-29T10:53:29.158Z</time></trkpt><trkpt lat="45.1220383" lon="7.408715"><ele>491.0</ele><time>2026-03-29T10:53:30.161Z</time></trkpt><trkpt lat="45.12198" lon="7.40858"><ele>491.0</ele><time>2026-03-29T10:53:31.16Z</time></trkpt><trkpt lat="45.1219283" lon="7.408455"><ele>491.0</ele><time>2026-03-29T10:53:32.157Z</time></trkpt><trkpt lat="45.12189" lon="7.40834"><ele>491.3333333333333</ele><time>2026-03-29T10:53:33.161Z</time></trkpt><trkpt lat="45.12186" lon="7.40822"><ele>491.66666666666663</ele><time>2026-03-29T10:53:34.161Z</time></trkpt><trkpt lat="45.1218367" lon="7.4081"><ele>492.0</ele><time>2026-03-29T10:53:35.162Z</time></trkpt><trkpt lat="45.1218267" lon="7.4079867"><ele>492.33333333333337</ele><time>2026-03-29T10:53:36.159Z</time></trkpt><trkpt lat="45.1218233" lon="7.4078883"><ele>492.6666666666667</ele><time>2026-03-29T10:53:37.161Z</time></trkpt><trkpt lat="45.1218233" lon="7.4077983"><ele>493.0</ele><time>2026-03-29T10:53:38.158Z</time></trkpt><trkpt lat="45.1218183" lon="7.4077033"><ele>492.33333333333337</ele><time>2026-03-29T10:53:39.161Z</time></trkpt><trkpt lat="45.1218167" lon="7.4076033"><ele>491.6666666666667</ele><time>2026-03-29T10:53:40.16Z</time></trkpt><trkpt lat="45.1218183" lon="7.40749"><ele>491.0</ele><time>2026-03-29T10:53:41.161Z</time></trkpt><trkpt lat="45.12182" lon="7.4073617"><ele>490.33333333333337</ele><time>2026-03-29T10:53:42.16Z</time></trkpt><trkpt lat="45.1218167" lon="7.4072267"><ele>489.6666666666667</ele><time>2026-03-29T10:53:43.159Z</time></trkpt><trkpt lat="45.121805" lon="7.4070833"><ele>489.0</ele><time>2026-03-29T10:53:44.16Z</time></trkpt><trkpt lat="45.1217933" lon="7.4069317"><ele>488.4</ele><time>2026-03-29T10:53:45.161Z</time></trkpt><trkpt lat="45.1217833" lon="7.406775"><ele>487.79999999999995</ele><time>2026-03-29T10:53:46.158Z</time></trkpt><trkpt lat="45.1217767" lon="7.4066283"><ele>487.20000000000005</ele><time>2026-03-29T10:53:47.161Z</time></trkpt><trkpt lat="45.1217733" lon="7.406475"><ele>486.6</ele><time>2026-03-29T10:53:48.162Z</time></trkpt><trkpt lat="45.1217717" lon="7.4063267"><ele>486.0</ele><time>2026-03-29T10:53:49.157Z</time></trkpt><trkpt lat="45.1217667" lon="7.40619"><ele>485.6666666666667</ele><time>2026-03-29T10:53:50.159Z</time></trkpt><trkpt lat="45.12176" lon="7.4060583"><ele>485.33333333333337</ele><time>2026-03-29T10:53:51.158Z</time></trkpt><trkpt lat="45.1217583" lon="7.4059283"><ele>485.0</ele><time>2026-03-29T10:53:52.16Z</time></trkpt><trkpt lat="45.1217583" lon="7.4058117"><ele>484.6666666666667</ele><time>2026-03-29T10:53:53.158Z</time></trkpt><trkpt lat="45.1217417" lon="7.4057017"><ele>484.33333333333337</ele><time>2026-03-29T10:53:54.161Z</time></trkpt><trkpt lat="45.1217117" lon="7.4055933"><ele>484.0</ele><time>2026-03-29T10:53:55.16Z</time></trkpt><trkpt lat="45.1216783" lon="7.405485"><ele>483.0</ele><time>2026-03-29T10:53:56.16Z</time></trkpt><trkpt lat="45.1216433" lon="7.40536"><ele>482.0</ele><time>2026-03-29T10:53:57.163Z</time></trkpt><trkpt lat="45.1215967" lon="7.40523"><ele>481.0</ele><time>2026-03-29T10:53:58.159Z</time></trkpt><trkpt lat="45.1215467" lon="7.4050967"><ele>480.0</ele><time>2026-03-29T10:53:59.161Z</time></trkpt><trkpt lat="45.1214983" lon="7.4049717"><ele>479.0</ele><time>2026-03-29T10:54:00.161Z</time></trkpt><trkpt lat="45.1214517" lon="7.4048383"><ele>476.0</ele><time>2026-03-29T10:54:01.159Z</time></trkpt><trkpt lat="45.12141" lon="7.4047067"><ele>473.0</ele><time>2026-03-29T10:54:02.161Z</time></trkpt><trkpt lat="45.1213817" lon="7.4045683"><ele>470.0</ele><time>2026-03-29T10:54:03.157Z</time></trkpt><trkpt lat="45.1213617" lon="7.404425"><ele>467.0</ele><time>2026-03-29T10:54:04.161Z</time></trkpt><trkpt lat="45.12134" lon="7.404285"><ele>464.0</ele><time>2026-03-29T10:54:05.162Z</time></trkpt><trkpt lat="45.1213217" lon="7.404145"><ele>463.6</ele><time>2026-03-29T10:54:06.161Z</time></trkpt><trkpt lat="45.12129" lon="7.4040067"><ele>463.2</ele><time>2026-03-29T10:54:07.161Z</time></trkpt><trkpt lat="45.1212517" lon="7.4038667"><ele>462.80000000000007</ele><time>2026-03-29T10:54:08.161Z</time></trkpt><trkpt lat="45.1212133" lon="7.4037233"><ele>462.40000000000003</ele><time>2026-03-29T10:54:09.159Z</time></trkpt><trkpt lat="45.1211733" lon="7.4035783"><ele>462.0</ele><time>2026-03-29T10:54:10.158Z</time></trkpt><trkpt lat="45.1211367" lon="7.4034317"><ele>461.40000000000003</ele><time>2026-03-29T10:54:11.16Z</time></trkpt><trkpt lat="45.1210967" lon="7.4032933"><ele>460.80000000000007</ele><time>2026-03-29T10:54:12.161Z</time></trkpt><trkpt lat="45.12104" lon="7.4031733"><ele>460.2</ele><time>2026-03-29T10:54:13.159Z</time></trkpt><trkpt lat="45.1209717" lon="7.4030583"><ele>459.6</ele><time>2026-03-29T10:54:14.161Z</time></trkpt><trkpt lat="45.1209033" lon="7.4029383"><ele>459.0</ele><time>2026-03-29T10:54:15.161Z</time></trkpt><trkpt lat="45.1208467" lon="7.402805"><ele>458.75</ele><time>2026-03-29T10:54:16.16Z</time></trkpt><trkpt lat="45.120795" lon="7.4026533"><ele>458.5</ele><time>2026-03-29T10:54:17.16Z</time></trkpt><trkpt lat="45.120735" lon="7.402495"><ele>458.25</ele><time>2026-03-29T10:54:18.156Z</time></trkpt><trkpt lat="45.1206717" lon="7.4023417"><ele>458.0</ele><time>2026-03-29T10:54:19.158Z</time></trkpt><trkpt lat="45.120605" lon="7.4021867"><ele>453.5</ele><time>2026-03-29T10:54:20.156Z</time></trkpt><trkpt lat="45.1205417" lon="7.4020283"><ele>449.0</ele><time>2026-03-29T10:54:21.16Z</time></trkpt><trkpt lat="45.1204883" lon="7.4018733"><ele>444.5</ele><time>2026-03-29T10:54:22.161Z</time></trkpt><trkpt lat="45.1204467" lon="7.4017333"><ele>440.0</ele><time>2026-03-29T10:54:23.159Z</time></trkpt><trkpt lat="45.1204117" lon="7.401605"><ele>440.0</ele><time>2026-03-29T10:54:24.158Z</time></trkpt><trkpt lat="45.1203683" lon="7.4014783"><ele>440.0</ele><time>2026-03-29T10:54:25.159Z</time></trkpt><trkpt lat="45.1202933" lon="7.40138"><ele>440.0</ele><time>2026-03-29T10:54:26.159Z</time></trkpt><trkpt lat="45.1202067" lon="7.4012883"><ele>440.0</ele><time>2026-03-29T10:54:27.159Z</time></trkpt><trkpt lat="45.120125" lon="7.40118"><ele>440.0</ele><time>2026-03-29T10:54:28.157Z</time></trkpt><trkpt lat="45.12004" lon="7.40106"><ele>438.0</ele><time>2026-03-29T10:54:29.163Z</time></trkpt><trkpt lat="45.119955" lon="7.4009333"><ele>436.0</ele><time>2026-03-29T10:54:30.158Z</time></trkpt><trkpt lat="45.11987" lon="7.4007967"><ele>434.0</ele><time>2026-03-29T10:54:31.157Z</time></trkpt><trkpt lat="45.1197917" lon="7.4006517"><ele>432.0</ele><time>2026-03-29T10:54:32.158Z</time></trkpt><trkpt lat="45.119725" lon="7.4005133"><ele>429.6</ele><time>2026-03-29T10:54:33.162Z</time></trkpt><trkpt lat="45.119675" lon="7.400375"><ele>427.20000000000005</ele><time>2026-03-29T10:54:34.161Z</time></trkpt><trkpt lat="45.1196267" lon="7.4002367"><ele>424.8</ele><time>2026-03-29T10:54:35.16Z</time></trkpt><trkpt lat="45.119565" lon="7.4001083"><ele>422.4</ele><time>2026-03-29T10:54:36.157Z</time></trkpt><trkpt lat="45.1194883" lon="7.3999917"><ele>420.0</ele><time>2026-03-29T10:54:37.159Z</time></trkpt><trkpt lat="45.1194083" lon="7.3998817"><ele>420.0</ele><time>2026-03-29T10:54:38.159Z</time></trkpt><trkpt lat="45.1193267" lon="7.39977"><ele>420.0</ele><time>2026-03-29T10:54:39.164Z</time></trkpt><trkpt lat="45.11924" lon="7.399655"><ele>420.0</ele><time>2026-03-29T10:54:40.162Z</time></trkpt><trkpt lat="45.1191533" lon="7.3995367"><ele>420.0</ele><time>2026-03-29T10:54:41.159Z</time></trkpt><trkpt lat="45.1190667" lon="7.3994183"><ele>416.5</ele><time>2026-03-29T10:54:42.163Z</time></trkpt><trkpt lat="45.1189817" lon="7.3993033"><ele>413.0</ele><time>2026-03-29T10:54:43.157Z</time></trkpt><trkpt lat="45.118905" lon="7.3992133"><ele>409.5</ele><time>2026-03-29T10:54:44.158Z</time></trkpt><trkpt lat="45.1188317" lon="7.3991567"><ele>406.0</ele><time>2026-03-29T10:54:45.158Z</time></trkpt><trkpt lat="45.1187583" lon="7.3991267"><ele>402.5</ele><time>2026-03-29T10:54:46.16Z</time></trkpt><trkpt lat="45.1186933" lon="7.3991283"><ele>399.0</ele><time>2026-03-29T10:54:47.161Z</time></trkpt><trkpt lat="45.11859" lon="7.39917"><ele>399.0</ele><time>2026-03-29T10:54:49.161Z</time></trkpt><trkpt lat="45.1185033" lon="7.3991033"><ele>399.0</ele><time>2026-03-29T10:54:51.16Z</time></trkpt><trkpt lat="45.1184667" lon="7.3990233"><ele>399.0</ele><time>2026-03-29T10:54:52.16Z</time></trkpt><trkpt lat="45.11842" lon="7.3989067"><ele>399.0</ele><time>2026-03-29T10:54:53.157Z</time></trkpt><trkpt lat="45.1183617" lon="7.3987733"><ele>399.0</ele><time>2026-03-29T10:54:54.161Z</time></trkpt><trkpt lat="45.1182983" lon="7.3986283"><ele>398.6666666666667</ele><time>2026-03-29T10:54:55.161Z</time></trkpt><trkpt lat="45.118235" lon="7.3985017"><ele>398.33333333333337</ele><time>2026-03-29T10:54:56.161Z</time></trkpt><trkpt lat="45.1181933" lon="7.398385"><ele>398.0</ele><time>2026-03-29T10:54:57.161Z</time></trkpt><trkpt lat="45.1181617" lon="7.3982867"><ele>397.6666666666667</ele><time>2026-03-29T10:54:58.157Z</time></trkpt><trkpt lat="45.1181317" lon="7.3981867"><ele>397.33333333333337</ele><time>2026-03-29T10:54:59.159Z</time></trkpt><trkpt lat="45.1181083" lon="7.398085"><ele>397.0</ele><time>2026-03-29T10:55:00.158Z</time></trkpt><trkpt lat="45.1180967" lon="7.3979783"><ele>393.33333333333337</ele><time>2026-03-29T10:55:01.159Z</time></trkpt><trkpt lat="45.1180917" lon="7.3978667"><ele>389.6666666666667</ele><time>2026-03-29T10:55:02.159Z</time></trkpt><trkpt lat="45.11809" lon="7.3977517"><ele>386.0</ele><time>2026-03-29T10:55:03.164Z</time></trkpt><trkpt lat="45.1180933" lon="7.39764"><ele>382.33333333333337</ele><time>2026-03-29T10:55:04.161Z</time></trkpt><trkpt lat="45.1181033" lon="7.39754"><ele>378.6666666666667</ele><time>2026-03-29T10:55:05.158Z</time></trkpt><trkpt lat="45.118115" lon="7.3973683"><ele>375.0</ele><time>2026-03-29T10:55:07.158Z</time></trkpt><trkpt lat="45.1181183" lon="7.397265"><ele>374.5</ele><time>2026-03-29T10:55:08.16Z</time></trkpt><trkpt lat="45.118125" lon="7.3971617"><ele>374.0</ele><time>2026-03-29T10:55:09.159Z</time></trkpt><trkpt lat="45.1181267" lon="7.3970717"><ele>373.5</ele><time>2026-03-29T10:55:10.158Z</time></trkpt><trkpt lat="45.1181183" lon="7.3969183"><ele>373.0</ele><time>2026-03-29T10:55:12.159Z</time></trkpt><trkpt lat="45.118095" lon="7.3967583"><ele>372.5</ele><time>2026-03-29T10:55:14.16Z</time></trkpt><trkpt lat="45.1180583" lon="7.3966483"><ele>372.0</ele><time>2026-03-29T10:55:16.159Z</time></trkpt><trkpt lat="45.1180633" lon="7.3965333"><ele>372.0</ele><time>2026-03-29T10:55:19.158Z</time></trkpt><trkpt lat="45.1181383" lon="7.39648"><ele>372.0</ele><time>2026-03-29T10:55:21.157Z</time></trkpt><trkpt lat="45.1182517" lon="7.396355"><ele>372.0</ele><time>2026-03-29T10:55:23.157Z</time></trkpt><trkpt lat="45.118305" lon="7.3962567"><ele>372.0</ele><time>2026-03-29T10:55:24.158Z</time></trkpt><trkpt lat="45.1183533" lon="7.3961667"><ele>372.0</ele><time>2026-03-29T10:55:25.161Z</time></trkpt><trkpt lat="45.1184267" lon="7.3960483"><ele>373.6</ele><time>2026-03-29T10:55:27.157Z</time></trkpt><trkpt lat="45.1185017" lon="7.3959833"><ele>375.20000000000005</ele><time>2026-03-29T10:55:29.161Z</time></trkpt><trkpt lat="45.1185833" lon="7.3959317"><ele>376.8</ele><time>2026-03-29T10:55:31.158Z</time></trkpt><trkpt lat="45.1186817" lon="7.395895"><ele>378.4</ele><time>2026-03-29T10:55:33.162Z</time></trkpt><trkpt lat="45.1187833" lon="7.3958833"><ele>380.0</ele><time>2026-03-29T10:55:35.158Z</time></trkpt><trkpt lat="45.1188883" lon="7.3959067"><ele>380.0</ele><time>2026-03-29T10:55:37.16Z</time></trkpt><trkpt lat="45.11898" lon="7.3959733"><ele>380.0</ele><time>2026-03-29T10:55:39.158Z</time></trkpt><trkpt lat="45.1190933" lon="7.3960583"><ele>380.0</ele><time>2026-03-29T10:55:41.161Z</time></trkpt><trkpt lat="45.1191567" lon="7.3960983"><ele>380.0</ele><time>2026-03-29T10:55:42.162Z</time></trkpt><trkpt lat="45.1192233" lon="7.39615"><ele>380.0</ele><time>2026-03-29T10:55:43.16Z</time></trkpt><trkpt lat="45.1192983" lon="7.3961983"><ele>381.57142857142856</ele><time>2026-03-29T10:55:44.158Z</time></trkpt><trkpt lat="45.1193683" lon="7.39625"><ele>383.14285714285717</ele><time>2026-03-29T10:55:45.163Z</time></trkpt><trkpt lat="45.11943" lon="7.396305"><ele>384.71428571428567</ele><time>2026-03-29T10:55:46.161Z</time></trkpt><trkpt lat="45.1194833" lon="7.396355"><ele>386.2857142857143</ele><time>2026-03-29T10:55:47.161Z</time></trkpt><trkpt lat="45.1195567" lon="7.3963983"><ele>387.85714285714283</ele><time>2026-03-29T10:55:49.165Z</time></trkpt><trkpt lat="45.1195417" lon="7.3962967"><ele>389.4285714285714</ele><time>2026-03-29T10:56:04.158Z</time></trkpt><trkpt lat="45.1194783" lon="7.396255"><ele>391.0</ele><time>2026-03-29T10:56:06.159Z</time></trkpt><trkpt lat="45.1193883" lon="7.3962017"><ele>391.0</ele><time>2026-03-29T10:56:08.161Z</time></trkpt><trkpt lat="45.1192717" lon="7.3961067"><ele>391.0</ele><time>2026-03-29T10:56:10.161Z</time></trkpt><trkpt lat="45.1191983" lon="7.396045"><ele>391.0</ele><time>2026-03-29T10:56:11.158Z</time></trkpt><trkpt lat="45.1191217" lon="7.3959767"><ele>391.0</ele><time>2026-03-29T10:56:12.161Z</time></trkpt><trkpt lat="45.1190533" lon="7.3959267"><ele>391.0</ele><time>2026-03-29T10:56:13.161Z</time></trkpt><trkpt lat="45.11899" lon="7.3958783"><ele>389.1666666666667</ele><time>2026-03-29T10:56:14.159Z</time></trkpt><trkpt lat="45.1189283" lon="7.3958333"><ele>387.33333333333337</ele><time>2026-03-29T10:56:15.159Z</time></trkpt><trkpt lat="45.1188583" lon="7.3958"><ele>385.5</ele><time>2026-03-29T10:56:16.16Z</time></trkpt><trkpt lat="45.11878" lon="7.3957867"><ele>383.6666666666667</ele><time>2026-03-29T10:56:17.157Z</time></trkpt><trkpt lat="45.118695" lon="7.3957917"><ele>381.83333333333337</ele><time>2026-03-29T10:56:18.158Z</time></trkpt><trkpt lat="45.1186167" lon="7.3958017"><ele>380.0</ele><time>2026-03-29T10:56:19.161Z</time></trkpt><trkpt lat="45.1185083" lon="7.3958633"><ele>380.0</ele><time>2026-03-29T10:56:21.16Z</time></trkpt><trkpt lat="45.11845" lon="7.3959017"><ele>380.0</ele><time>2026-03-29T10:56:23.157Z</time></trkpt><trkpt lat="45.1185" lon="7.39581"><ele>380.0</ele><time>2026-03-29T10:56:34.161Z</time></trkpt><trkpt lat="45.118575" lon="7.3957233"><ele>380.0</ele><time>2026-03-29T10:56:36.158Z</time></trkpt><trkpt lat="45.1186083" lon="7.395615"><ele>380.0</ele><time>2026-03-29T10:56:39.161Z</time></trkpt><trkpt lat="45.1185667" lon="7.3954867"><ele>380.0</ele><time>2026-03-29T10:56:42.159Z</time></trkpt><trkpt lat="45.118535" lon="7.3953783"><ele>380.33333333333337</ele><time>2026-03-29T10:56:44.158Z</time></trkpt><trkpt lat="45.1185367" lon="7.3952417"><ele>380.6666666666667</ele><time>2026-03-29T10:56:46.158Z</time></trkpt><trkpt lat="45.11854" lon="7.3951433"><ele>381.0</ele><time>2026-03-29T10:56:48.158Z</time></trkpt><trkpt lat="45.1185367" lon="7.395035"><ele>381.3333333333333</ele><time>2026-03-29T10:56:52.159Z</time></trkpt><trkpt lat="45.11852" lon="7.3949367"><ele>381.66666666666663</ele><time>2026-03-29T10:56:54.161Z</time></trkpt><trkpt lat="45.1184967" lon="7.39479"><ele>382.0</ele><time>2026-03-29T10:56:56.161Z</time></trkpt><trkpt lat="45.1184917" lon="7.39464"><ele>382.0</ele><time>2026-03-29T10:56:58.159Z</time></trkpt><trkpt lat="45.1185017" lon="7.39454"><ele>382.0</ele><time>2026-03-29T10:57:00.157Z</time></trkpt><trkpt lat="45.1185333" lon="7.3944433"><ele>382.0</ele><time>2026-03-29T10:57:03.16Z</time></trkpt><trkpt lat="45.1185583" lon="7.394335"><ele>382.0</ele><time>2026-03-29T10:57:05.158Z</time></trkpt><trkpt lat="45.118535" lon="7.3942133"><ele>382.0</ele><time>2026-03-29T10:57:07.162Z</time></trkpt><trkpt lat="45.1184567" lon="7.39409"><ele>382.0</ele><time>2026-03-29T10:57:09.16Z</time></trkpt><trkpt lat="45.1184033" lon="7.39399"><ele>382.0</ele><time>2026-03-29T10:57:11.158Z</time></trkpt><trkpt lat="45.1184217" lon="7.3938917"><ele>382.0</ele><time>2026-03-29T10:57:13.157Z</time></trkpt><trkpt lat="45.118495" lon="7.3938933"><ele>382.0</ele><time>2026-03-29T10:57:15.16Z</time></trkpt><trkpt lat="45.118585" lon="7.39399"><ele>382.0</ele><time>2026-03-29T10:57:17.159Z</time></trkpt><trkpt lat="45.11864" lon="7.3940467"><ele>382.0</ele><time>2026-03-29T10:57:18.161Z</time></trkpt><trkpt lat="45.1187033" lon="7.3940917"><ele>382.0</ele><time>2026-03-29T10:57:19.161Z</time></trkpt><trkpt lat="45.1187683" lon="7.3941167"><ele>382.0</ele><time>2026-03-29T10:57:20.158Z</time></trkpt><trkpt lat="45.1188433" lon="7.3941267"><ele>382.0</ele><time>2026-03-29T10:57:21.164Z</time></trkpt><trkpt lat="45.1189333" lon="7.3941267"><ele>382.0</ele><time>2026-03-29T10:57:22.163Z</time></trkpt><trkpt lat="45.119025" lon="7.39412"><ele>382.0</ele><time>2026-03-29T10:57:23.161Z</time></trkpt><trkpt lat="45.11912" lon="7.3941067"><ele>382.0</ele><time>2026-03-29T10:57:24.16Z</time></trkpt><trkpt lat="45.1192233" lon="7.39407"><ele>383.6</ele><time>2026-03-29T10:57:25.159Z</time></trkpt><trkpt lat="45.1193117" lon="7.394045"><ele>385.20000000000005</ele><time>2026-03-29T10:57:26.159Z</time></trkpt><trkpt lat="45.11942" lon="7.3940367"><ele>386.8</ele><time>2026-03-29T10:57:27.164Z</time></trkpt><trkpt lat="45.119545" lon="7.39403"><ele>388.4</ele><time>2026-03-29T10:57:28.158Z</time></trkpt><trkpt lat="45.1196633" lon="7.3940417"><ele>390.0</ele><time>2026-03-29T10:57:29.16Z</time></trkpt><trkpt lat="45.119775" lon="7.3940483"><ele>393.25</ele><time>2026-03-29T10:57:30.159Z</time></trkpt><trkpt lat="45.1199033" lon="7.3940317"><ele>396.5</ele><time>2026-03-29T10:57:31.159Z</time></trkpt><trkpt lat="45.1200233" lon="7.3940183"><ele>399.75</ele><time>2026-03-29T10:57:32.159Z</time></trkpt><trkpt lat="45.1201417" lon="7.3940033"><ele>403.0</ele><time>2026-03-29T10:57:33.159Z</time></trkpt><trkpt lat="45.1202667" lon="7.3939783"><ele>403.00000000000006</ele><time>2026-03-29T10:57:34.158Z</time></trkpt><trkpt lat="45.120375" lon="7.39396"><ele>403.0</ele><time>2026-03-29T10:57:35.157Z</time></trkpt><trkpt lat="45.12048" lon="7.3939433"><ele>403.0</ele><time>2026-03-29T10:57:36.158Z</time></trkpt><trkpt lat="45.120575" lon="7.3939367"><ele>403.0</ele><time>2026-03-29T10:57:37.163Z</time></trkpt><trkpt lat="45.1206467" lon="7.3939267"><ele>403.00000000000006</ele><time>2026-03-29T10:57:38.159Z</time></trkpt><trkpt lat="45.12071" lon="7.3939017"><ele>403.0</ele><time>2026-03-29T10:57:39.165Z</time></trkpt><trkpt lat="45.120765" lon="7.3938483"><ele>406.50000000000006</ele><time>2026-03-29T10:57:40.162Z</time></trkpt><trkpt lat="45.120815" lon="7.3937817"><ele>410.0</ele><time>2026-03-29T10:57:41.16Z</time></trkpt><trkpt lat="45.120865" lon="7.39369"><ele>413.5</ele><time>2026-03-29T10:57:42.158Z</time></trkpt><trkpt lat="45.1209067" lon="7.39359"><ele>417.0</ele><time>2026-03-29T10:57:43.159Z</time></trkpt><trkpt lat="45.12094" lon="7.393475"><ele>420.50000000000006</ele><time>2026-03-29T10:57:44.162Z</time></trkpt><trkpt lat="45.1209783" lon="7.3933567"><ele>424.0</ele><time>2026-03-29T10:57:45.162Z</time></trkpt><trkpt lat="45.1210183" lon="7.3932367"><ele>424.00000000000006</ele><time>2026-03-29T10:57:46.162Z</time></trkpt><trkpt lat="45.1210533" lon="7.3931267"><ele>424.0</ele><time>2026-03-29T10:57:47.159Z</time></trkpt><trkpt lat="45.1210917" lon="7.3930433"><ele>424.0</ele><time>2026-03-29T10:57:48.16Z</time></trkpt><trkpt lat="45.12113" lon="7.3929483"><ele>424.0</ele><time>2026-03-29T10:57:50.158Z</time></trkpt><trkpt lat="45.12121" lon="7.3929933"><ele>424.00000000000006</ele><time>2026-03-29T10:58:25.16Z</time></trkpt><trkpt lat="45.1212217" lon="7.3930833"><ele>424.0</ele><time>2026-03-29T10:58:26.161Z</time></trkpt><trkpt lat="45.1212367" lon="7.39319"><ele>424.0</ele><time>2026-03-29T10:58:27.161Z</time></trkpt><trkpt lat="45.1212567" lon="7.3933"><ele>424.0</ele><time>2026-03-29T10:58:28.157Z</time></trkpt><trkpt lat="45.1212883" lon="7.3934133"><ele>424.0</ele><time>2026-03-29T10:58:29.163Z</time></trkpt><trkpt lat="45.121325" lon="7.3935367"><ele>424.0</ele><time>2026-03-29T10:58:30.163Z</time></trkpt><trkpt lat="45.1213633" lon="7.3936667"><ele>424.0</ele><time>2026-03-29T10:58:31.16Z</time></trkpt><trkpt lat="45.1214" lon="7.3937967"><ele>423.83333333333337</ele><time>2026-03-29T10:58:32.16Z</time></trkpt><trkpt lat="45.1214383" lon="7.3939267"><ele>423.6666666666667</ele><time>2026-03-29T10:58:33.159Z</time></trkpt><trkpt lat="45.1214933" lon="7.3940383"><ele>423.5</ele><time>2026-03-29T10:58:34.157Z</time></trkpt><trkpt lat="45.1215667" lon="7.3941083"><ele>423.33333333333337</ele><time>2026-03-29T10:58:35.159Z</time></trkpt><trkpt lat="45.12165" lon="7.39413"><ele>423.1666666666667</ele><time>2026-03-29T10:58:36.162Z</time></trkpt><trkpt lat="45.1217283" lon="7.39412"><ele>423.0</ele><time>2026-03-29T10:58:37.16Z</time></trkpt><trkpt lat="45.1218083" lon="7.3940283"><ele>426.75</ele><time>2026-03-29T10:58:38.162Z</time></trkpt><trkpt lat="45.1218733" lon="7.3939017"><ele>430.5</ele><time>2026-03-29T10:58:39.162Z</time></trkpt><trkpt lat="45.1219333" lon="7.3937433"><ele>434.25</ele><time>2026-03-29T10:58:40.162Z</time></trkpt><trkpt lat="45.1219883" lon="7.39359"><ele>438.0</ele><time>2026-03-29T10:58:41.16Z</time></trkpt><trkpt lat="45.1220433" lon="7.393435"><ele>438.25</ele><time>2026-03-29T10:58:42.157Z</time></trkpt><trkpt lat="45.1220983" lon="7.3932683"><ele>438.5</ele><time>2026-03-29T10:58:43.161Z</time></trkpt><trkpt lat="45.12216" lon="7.39309"><ele>438.75</ele><time>2026-03-29T10:58:44.16Z</time></trkpt><trkpt lat="45.1222267" lon="7.3929067"><ele>439.0</ele><time>2026-03-29T10:58:45.161Z</time></trkpt><trkpt lat="45.1223017" lon="7.3927233"><ele>439.33333333333337</ele><time>2026-03-29T10:58:46.161Z</time></trkpt><trkpt lat="45.1223733" lon="7.39253"><ele>439.66666666666663</ele><time>2026-03-29T10:58:47.162Z</time></trkpt><trkpt lat="45.122435" lon="7.3923317"><ele>440.0</ele><time>2026-03-29T10:58:48.16Z</time></trkpt><trkpt lat="45.1224817" lon="7.3921333"><ele>444.25</ele><time>2026-03-29T10:58:49.162Z</time></trkpt><trkpt lat="45.12251" lon="7.39194"><ele>448.5</ele><time>2026-03-29T10:58:50.161Z</time></trkpt><trkpt lat="45.1225333" lon="7.3917533"><ele>452.75</ele><time>2026-03-29T10:58:51.159Z</time></trkpt><trkpt lat="45.1225517" lon="7.391585"><ele>457.0</ele><time>2026-03-29T10:58:52.158Z</time></trkpt><trkpt lat="45.122565" lon="7.3914367"><ele>457.33333333333337</ele><time>2026-03-29T10:58:53.165Z</time></trkpt><trkpt lat="45.12258" lon="7.3913033"><ele>457.6666666666667</ele><time>2026-03-29T10:58:54.164Z</time></trkpt><trkpt lat="45.1225933" lon="7.3911883"><ele>458.0</ele><time>2026-03-29T10:58:55.161Z</time></trkpt><trkpt lat="45.12261" lon="7.39109"><ele>458.33333333333337</ele><time>2026-03-29T10:58:56.161Z</time></trkpt><trkpt lat="45.1226783" lon="7.3909467"><ele>458.6666666666667</ele><time>2026-03-29T10:58:58.161Z</time></trkpt><trkpt lat="45.122745" lon="7.3909483"><ele>459.0</ele><time>2026-03-29T10:58:59.159Z</time></trkpt><trkpt lat="45.12281" lon="7.3909967"><ele>459.0</ele><time>2026-03-29T10:59:00.161Z</time></trkpt><trkpt lat="45.1228833" lon="7.3910683"><ele>459.0</ele><time>2026-03-29T10:59:01.16Z</time></trkpt><trkpt lat="45.1229733" lon="7.3911683"><ele>459.0</ele><time>2026-03-29T10:59:02.158Z</time></trkpt><trkpt lat="45.1230817" lon="7.39129"><ele>459.0</ele><time>2026-03-29T10:59:03.159Z</time></trkpt><trkpt lat="45.12319" lon="7.39143"><ele>464.0</ele><time>2026-03-29T10:59:04.161Z</time></trkpt><trkpt lat="45.1233083" lon="7.3915817"><ele>469.0</ele><time>2026-03-29T10:59:05.163Z</time></trkpt><trkpt lat="45.1234217" lon="7.3917317"><ele>474.0</ele><time>2026-03-29T10:59:06.159Z</time></trkpt><trkpt lat="45.12352" lon="7.3918783"><ele>474.0</ele><time>2026-03-29T10:59:07.162Z</time></trkpt><trkpt lat="45.1236033" lon="7.3920333"><ele>474.0</ele><time>2026-03-29T10:59:08.16Z</time></trkpt><trkpt lat="45.12366" lon="7.3922133"><ele>474.0</ele><time>2026-03-29T10:59:09.158Z</time></trkpt><trkpt lat="45.123705" lon="7.392405"><ele>474.0</ele><time>2026-03-29T10:59:10.159Z</time></trkpt><trkpt lat="45.1237433" lon="7.3925967"><ele>473.5</ele><time>2026-03-29T10:59:11.162Z</time></trkpt><trkpt lat="45.12378" lon="7.3927783"><ele>473.0</ele><time>2026-03-29T10:59:12.164Z</time></trkpt><trkpt lat="45.123815" lon="7.3929433"><ele>472.5</ele><time>2026-03-29T10:59:13.162Z</time></trkpt><trkpt lat="45.1238433" lon="7.3930933"><ele>472.0</ele><time>2026-03-29T10:59:14.162Z</time></trkpt><trkpt lat="45.1238683" lon="7.3932217"><ele>471.6666666666667</ele><time>2026-03-29T10:59:15.16Z</time></trkpt><trkpt lat="45.1239" lon="7.39333"><ele>471.33333333333337</ele><time>2026-03-29T10:59:16.158Z</time></trkpt><trkpt lat="45.12394" lon="7.3934133"><ele>471.0</ele><time>2026-03-29T10:59:17.158Z</time></trkpt><trkpt lat="45.1239917" lon="7.393465"><ele>470.66666666666663</ele><time>2026-03-29T10:59:18.159Z</time></trkpt><trkpt lat="45.1241083" lon="7.393455"><ele>470.3333333333333</ele><time>2026-03-29T10:59:20.161Z</time></trkpt><trkpt lat="45.12419" lon="7.393375"><ele>470.0</ele><time>2026-03-29T10:59:21.159Z</time></trkpt><trkpt lat="45.12428" lon="7.3932867"><ele>472.16666666666663</ele><time>2026-03-29T10:59:22.163Z</time></trkpt><trkpt lat="45.1243583" lon="7.3932117"><ele>474.3333333333333</ele><time>2026-03-29T10:59:23.163Z</time></trkpt><trkpt lat="45.124445" lon="7.3931417"><ele>476.5</ele><time>2026-03-29T10:59:24.16Z</time></trkpt><trkpt lat="45.1245267" lon="7.3930783"><ele>478.66666666666663</ele><time>2026-03-29T10:59:25.159Z</time></trkpt><trkpt lat="45.1246083" lon="7.3930583"><ele>480.8333333333333</ele><time>2026-03-29T10:59:26.16Z</time></trkpt><trkpt lat="45.1246833" lon="7.3930767"><ele>483.0</ele><time>2026-03-29T10:59:27.164Z</time></trkpt><trkpt lat="45.1247483" lon="7.3931267"><ele>483.0</ele><time>2026-03-29T10:59:28.157Z</time></trkpt><trkpt lat="45.1247867" lon="7.3932283"><ele>482.99999999999994</ele><time>2026-03-29T10:59:29.161Z</time></trkpt><trkpt lat="45.1248267" lon="7.3933433"><ele>482.99999999999994</ele><time>2026-03-29T10:59:30.161Z</time></trkpt><trkpt lat="45.1248833" lon="7.39351"><ele>483.0</ele><time>2026-03-29T10:59:31.162Z</time></trkpt><trkpt lat="45.1249383" lon="7.3936933"><ele>483.0</ele><time>2026-03-29T10:59:32.16Z</time></trkpt><trkpt lat="45.1249933" lon="7.3938533"><ele>485.0</ele><time>2026-03-29T10:59:33.165Z</time></trkpt><trkpt lat="45.1250667" lon="7.39396"><ele>486.99999999999994</ele><time>2026-03-29T10:59:34.163Z</time></trkpt><trkpt lat="45.1251417" lon="7.394005"><ele>488.99999999999994</ele><time>2026-03-29T10:59:35.161Z</time></trkpt><trkpt lat="45.1252133" lon="7.3939933"><ele>491.0</ele><time>2026-03-29T10:59:36.158Z</time></trkpt><trkpt lat="45.1252717" lon="7.3939067"><ele>493.0</ele><time>2026-03-29T10:59:37.158Z</time></trkpt><trkpt lat="45.125325" lon="7.3937567"><ele>494.0</ele><time>2026-03-29T10:59:38.157Z</time></trkpt><trkpt lat="45.125375" lon="7.3935867"><ele>495.0</ele><time>2026-03-29T10:59:39.16Z</time></trkpt><trkpt lat="45.1254267" lon="7.393415"><ele>496.0</ele><time>2026-03-29T10:59:40.163Z</time></trkpt><trkpt lat="45.12548" lon="7.3932683"><ele>497.0</ele><time>2026-03-29T10:59:41.16Z</time></trkpt><trkpt lat="45.1255533" lon="7.393155"><ele>497.0</ele><time>2026-03-29T10:59:42.162Z</time></trkpt><trkpt lat="45.1256567" lon="7.3931017"><ele>497.0</ele><time>2026-03-29T10:59:43.161Z</time></trkpt><trkpt lat="45.1257683" lon="7.393105"><ele>497.0</ele><time>2026-03-29T10:59:44.16Z</time></trkpt><trkpt lat="45.125895" lon="7.3931533"><ele>497.0</ele><time>2026-03-29T10:59:45.163Z</time></trkpt><trkpt lat="45.126025" lon="7.39322"><ele>499.66666666666663</ele><time>2026-03-29T10:59:46.16Z</time></trkpt><trkpt lat="45.126165" lon="7.3932933"><ele>502.33333333333337</ele><time>2026-03-29T10:59:47.16Z</time></trkpt><trkpt lat="45.1263117" lon="7.393365"><ele>505.0</ele><time>2026-03-29T10:59:48.161Z</time></trkpt><trkpt lat="45.1264667" lon="7.3934383"><ele>508.6666666666667</ele><time>2026-03-29T10:59:49.16Z</time></trkpt><trkpt lat="45.1266267" lon="7.3935167"><ele>512.3333333333334</ele><time>2026-03-29T10:59:50.158Z</time></trkpt><trkpt lat="45.1267917" lon="7.3936"><ele>516.0</ele><time>2026-03-29T10:59:51.158Z</time></trkpt><trkpt lat="45.12696" lon="7.393685"><ele>516.0</ele><time>2026-03-29T10:59:52.164Z</time></trkpt><trkpt lat="45.1271267" lon="7.3937633"><ele>516.0</ele><time>2026-03-29T10:59:53.159Z</time></trkpt><trkpt lat="45.127285" lon="7.3938383"><ele>516.0</ele><time>2026-03-29T10:59:54.162Z</time></trkpt><trkpt lat="45.12743" lon="7.3939167"><ele>517.75</ele><time>2026-03-29T10:59:55.164Z</time></trkpt><trkpt lat="45.12755" lon="7.3940033"><ele>519.5</ele><time>2026-03-29T10:59:56.16Z</time></trkpt><trkpt lat="45.1276567" lon="7.394105"><ele>521.25</ele><time>2026-03-29T10:59:57.161Z</time></trkpt><trkpt lat="45.12775" lon="7.3942367"><ele>523.0</ele><time>2026-03-29T10:59:58.161Z</time></trkpt><trkpt lat="45.1278417" lon="7.3943933"><ele>523.0</ele><time>2026-03-29T10:59:59.166Z</time></trkpt><trkpt lat="45.127935" lon="7.3945633"><ele>523.0</ele><time>2026-03-29T11:00:00.159Z</time></trkpt><trkpt lat="45.12803" lon="7.3947433"><ele>523.0</ele><time>2026-03-29T11:00:01.163Z</time></trkpt><trkpt lat="45.12813" lon="7.3949317"><ele>526.0</ele><time>2026-03-29T11:00:02.163Z</time></trkpt><trkpt lat="45.1282317" lon="7.3951233"><ele>529.0</ele><time>2026-03-29T11:00:03.161Z</time></trkpt><trkpt lat="45.1283317" lon="7.395315"><ele>532.0</ele><time>2026-03-29T11:00:04.159Z</time></trkpt><trkpt lat="45.1284317" lon="7.39551"><ele>532.0</ele><time>2026-03-29T11:00:05.164Z</time></trkpt><trkpt lat="45.1285233" lon="7.395695"><ele>532.0</ele><time>2026-03-29T11:00:06.164Z</time></trkpt><trkpt lat="45.128605" lon="7.3958583"><ele>532.0</ele><time>2026-03-29T11:00:07.161Z</time></trkpt><trkpt lat="45.1286767" lon="7.3959967"><ele>532.0</ele><time>2026-03-29T11:00:08.162Z</time></trkpt><trkpt lat="45.1287417" lon="7.39611"><ele>532.0</ele><time>2026-03-29T11:00:09.158Z</time></trkpt><trkpt lat="45.128815" lon="7.3961683"><ele>532.0</ele><time>2026-03-29T11:00:10.161Z</time></trkpt><trkpt lat="45.1288817" lon="7.3961783"><ele>532.0</ele><time>2026-03-29T11:00:11.239Z</time></trkpt><trkpt lat="45.1289533" lon="7.3961083"><ele>532.0</ele><time>2026-03-29T11:00:12.161Z</time></trkpt><trkpt lat="45.1290333" lon="7.396005"><ele>532.0</ele><time>2026-03-29T11:00:13.16Z</time></trkpt><trkpt lat="45.1291217" lon="7.3958767"><ele>534.25</ele><time>2026-03-29T11:00:14.163Z</time></trkpt><trkpt lat="45.129215" lon="7.39574"><ele>536.5</ele><time>2026-03-29T11:00:15.161Z</time></trkpt><trkpt lat="45.1293133" lon="7.395595"><ele>538.75</ele><time>2026-03-29T11:00:16.161Z</time></trkpt><trkpt lat="45.1294233" lon="7.3954417"><ele>541.0</ele><time>2026-03-29T11:00:17.159Z</time></trkpt><trkpt lat="45.129545" lon="7.395285"><ele>544.3333333333334</ele><time>2026-03-29T11:00:18.163Z</time></trkpt><trkpt lat="45.12968" lon="7.39514"><ele>547.6666666666666</ele><time>2026-03-29T11:00:19.162Z</time></trkpt><trkpt lat="45.1298233" lon="7.39501"><ele>551.0</ele><time>2026-03-29T11:00:20.158Z</time></trkpt><trkpt lat="45.12998" lon="7.3949033"><ele>553.6666666666666</ele><time>2026-03-29T11:00:21.16Z</time></trkpt><trkpt lat="45.13015" lon="7.3948267"><ele>556.3333333333334</ele><time>2026-03-29T11:00:22.162Z</time></trkpt><trkpt lat="45.1303283" lon="7.394755"><ele>559.0</ele><time>2026-03-29T11:00:23.161Z</time></trkpt><trkpt lat="45.1305117" lon="7.394665"><ele>564.6666666666667</ele><time>2026-03-29T11:00:24.159Z</time></trkpt><trkpt lat="45.1306883" lon="7.3945433"><ele>570.3333333333334</ele><time>2026-03-29T11:00:25.164Z</time></trkpt><trkpt lat="45.1308733" lon="7.3944183"><ele>576.0</ele><time>2026-03-29T11:00:26.163Z</time></trkpt><trkpt lat="45.1310633" lon="7.3942733"><ele>577.5</ele><time>2026-03-29T11:00:27.161Z</time></trkpt><trkpt lat="45.1312733" lon="7.3941467"><ele>579.0</ele><time>2026-03-29T11:00:28.159Z</time></trkpt><trkpt lat="45.1314983" lon="7.3940317"><ele>576.5</ele><time>2026-03-29T11:00:29.159Z</time></trkpt><trkpt lat="45.131735" lon="7.3939133"><ele>574.0</ele><time>2026-03-29T11:00:30.159Z</time></trkpt><trkpt lat="45.1319783" lon="7.3938"><ele>590.0</ele><time>2026-03-29T11:00:31.162Z</time></trkpt><trkpt lat="45.1322217" lon="7.3937017"><ele>606.0</ele><time>2026-03-29T11:00:32.16Z</time></trkpt><trkpt lat="45.132465" lon="7.393605"><ele>606.5</ele><time>2026-03-29T11:00:33.161Z</time></trkpt><trkpt lat="45.1327067" lon="7.3935167"><ele>607.0</ele><time>2026-03-29T11:00:34.164Z</time></trkpt><trkpt lat="45.1329367" lon="7.39344"><ele>607.0</ele><time>2026-03-29T11:00:35.162Z</time></trkpt><trkpt lat="45.1331483" lon="7.3933683"><ele>607.0</ele><time>2026-03-29T11:00:36.16Z</time></trkpt><trkpt lat="45.1333167" lon="7.3932967"><ele>607.0</ele><time>2026-03-29T11:00:37.162Z</time></trkpt><trkpt lat="45.1334583" lon="7.3932033"><ele>608.25</ele><time>2026-03-29T11:00:38.164Z</time></trkpt><trkpt lat="45.1335683" lon="7.3930733"><ele>609.5</ele><time>2026-03-29T11:00:39.164Z</time></trkpt><trkpt lat="45.13365" lon="7.392905"><ele>610.75</ele><time>2026-03-29T11:00:40.163Z</time></trkpt><trkpt lat="45.13371" lon="7.3927083"><ele>612.0</ele><time>2026-03-29T11:00:41.16Z</time></trkpt><trkpt lat="45.133765" lon="7.3924733"><ele>612.0</ele><time>2026-03-29T11:00:42.164Z</time></trkpt><trkpt lat="45.1338283" lon="7.3922317"><ele>612.0</ele><time>2026-03-29T11:00:43.164Z</time></trkpt><trkpt lat="45.1339133" lon="7.3920117"><ele>612.0</ele><time>2026-03-29T11:00:44.162Z</time></trkpt><trkpt lat="45.1340117" lon="7.3918067"><ele>608.0</ele><time>2026-03-29T11:00:45.163Z</time></trkpt><trkpt lat="45.1340983" lon="7.39159"><ele>604.0</ele><time>2026-03-29T11:00:46.165Z</time></trkpt><trkpt lat="45.13417" lon="7.3913533"><ele>600.0</ele><time>2026-03-29T11:00:47.162Z</time></trkpt><trkpt lat="45.1342283" lon="7.391115"><ele>600.0</ele><time>2026-03-29T11:00:48.162Z</time></trkpt><trkpt lat="45.1342817" lon="7.3908967"><ele>600.0</ele><time>2026-03-29T11:00:49.162Z</time></trkpt><trkpt lat="45.134345" lon="7.39069"><ele>600.0</ele><time>2026-03-29T11:00:50.165Z</time></trkpt><trkpt lat="45.1344283" lon="7.3904933"><ele>605.0</ele><time>2026-03-29T11:00:51.159Z</time></trkpt><trkpt lat="45.134525" lon="7.3903083"><ele>610.0</ele><time>2026-03-29T11:00:52.163Z</time></trkpt><trkpt lat="45.134635" lon="7.3901417"><ele>615.0</ele><time>2026-03-29T11:00:53.162Z</time></trkpt><trkpt lat="45.134755" lon="7.3899967"><ele>615.0</ele><time>2026-03-29T11:00:54.164Z</time></trkpt><trkpt lat="45.13487" lon="7.389865"><ele>615.0</ele><time>2026-03-29T11:00:55.161Z</time></trkpt><trkpt lat="45.1349717" lon="7.3897283"><ele>615.0</ele><time>2026-03-29T11:00:56.159Z</time></trkpt><trkpt lat="45.13506" lon="7.389575"><ele>615.0</ele><time>2026-03-29T11:00:57.16Z</time></trkpt><trkpt lat="45.135135" lon="7.3894033"><ele>614.5</ele><time>2026-03-29T11:00:58.157Z</time></trkpt><trkpt lat="45.1351983" lon="7.3892233"><ele>614.0</ele><time>2026-03-29T11:00:59.161Z</time></trkpt><trkpt lat="45.13524" lon="7.389045"><ele>613.5</ele><time>2026-03-29T11:01:00.161Z</time></trkpt><trkpt lat="45.135265" lon="7.3888683"><ele>613.0</ele><time>2026-03-29T11:01:01.162Z</time></trkpt><trkpt lat="45.1352783" lon="7.3887"><ele>613.0</ele><time>2026-03-29T11:01:02.161Z</time></trkpt><trkpt lat="45.1352833" lon="7.38854"><ele>613.0</ele><time>2026-03-29T11:01:03.161Z</time></trkpt><trkpt lat="45.135285" lon="7.3883933"><ele>613.0</ele><time>2026-03-29T11:01:04.16Z</time></trkpt><trkpt lat="45.1352883" lon="7.3882483"><ele>613.0</ele><time>2026-03-29T11:01:05.161Z</time></trkpt><trkpt lat="45.1352883" lon="7.3880983"><ele>613.0</ele><time>2026-03-29T11:01:06.162Z</time></trkpt><trkpt lat="45.1352817" lon="7.3879467"><ele>613.6</ele><time>2026-03-29T11:01:07.161Z</time></trkpt><trkpt lat="45.13527" lon="7.3878017"><ele>614.1999999999999</ele><time>2026-03-29T11:01:08.162Z</time></trkpt><trkpt lat="45.1352533" lon="7.3876667"><ele>614.8</ele><time>2026-03-29T11:01:09.16Z</time></trkpt><trkpt lat="45.135235" lon="7.3875283"><ele>615.4</ele><time>2026-03-29T11:01:10.163Z</time></trkpt><trkpt lat="45.1352183" lon="7.3873933"><ele>616.0</ele><time>2026-03-29T11:01:11.163Z</time></trkpt><trkpt lat="45.1352017" lon="7.3872667"><ele>615.3333333333334</ele><time>2026-03-29T11:01:12.163Z</time></trkpt><trkpt lat="45.1351867" lon="7.3871483"><ele>614.6666666666667</ele><time>2026-03-29T11:01:13.163Z</time></trkpt><trkpt lat="45.1351783" lon="7.38704"><ele>614.0</ele><time>2026-03-29T11:01:14.161Z</time></trkpt><trkpt lat="45.1351633" lon="7.3869317"><ele>613.3333333333334</ele><time>2026-03-29T11:01:15.162Z</time></trkpt><trkpt lat="45.1351483" lon="7.38682"><ele>612.6666666666666</ele><time>2026-03-29T11:01:16.16Z</time></trkpt><trkpt lat="45.1351367" lon="7.3867033"><ele>612.0</ele><time>2026-03-29T11:01:17.161Z</time></trkpt><trkpt lat="45.1351283" lon="7.3865867"><ele>612.0</ele><time>2026-03-29T11:01:18.16Z</time></trkpt><trkpt lat="45.1351183" lon="7.3864633"><ele>612.0</ele><time>2026-03-29T11:01:19.158Z</time></trkpt><trkpt lat="45.1351017" lon="7.38633"><ele>612.0</ele><time>2026-03-29T11:01:20.16Z</time></trkpt><trkpt lat="45.1350833" lon="7.3861883"><ele>612.0</ele><time>2026-03-29T11:01:21.16Z</time></trkpt><trkpt lat="45.1350683" lon="7.38605"><ele>612.0</ele><time>2026-03-29T11:01:22.163Z</time></trkpt><trkpt lat="45.1350733" lon="7.3859117"><ele>611.0</ele><time>2026-03-29T11:01:23.163Z</time></trkpt><trkpt lat="45.1350883" lon="7.385785"><ele>610.0</ele><time>2026-03-29T11:01:24.162Z</time></trkpt><trkpt lat="45.13513" lon="7.3856717"><ele>609.0</ele><time>2026-03-29T11:01:25.163Z</time></trkpt><trkpt lat="45.1351967" lon="7.38556"><ele>608.0</ele><time>2026-03-29T11:01:26.162Z</time></trkpt><trkpt lat="45.1352767" lon="7.3854533"><ele>607.0</ele><time>2026-03-29T11:01:27.161Z</time></trkpt><trkpt lat="45.1353567" lon="7.3853467"><ele>606.8000000000001</ele><time>2026-03-29T11:01:28.161Z</time></trkpt><trkpt lat="45.1354383" lon="7.3852433"><ele>606.6</ele><time>2026-03-29T11:01:29.161Z</time></trkpt><trkpt lat="45.1355217" lon="7.3851383"><ele>606.4000000000001</ele><time>2026-03-29T11:01:30.158Z</time></trkpt><trkpt lat="45.1356067" lon="7.38503"><ele>606.2</ele><time>2026-03-29T11:01:31.16Z</time></trkpt><trkpt lat="45.13569" lon="7.3849217"><ele>606.0</ele><time>2026-03-29T11:01:32.16Z</time></trkpt><trkpt lat="45.135765" lon="7.3848167"><ele>605.8333333333334</ele><time>2026-03-29T11:01:33.163Z</time></trkpt><trkpt lat="45.13584" lon="7.3847283"><ele>605.6666666666666</ele><time>2026-03-29T11:01:34.161Z</time></trkpt><trkpt lat="45.13591" lon="7.3846617"><ele>605.5</ele><time>2026-03-29T11:01:35.162Z</time></trkpt><trkpt lat="45.1359817" lon="7.3846283"><ele>605.3333333333333</ele><time>2026-03-29T11:01:36.161Z</time></trkpt><trkpt lat="45.1360533" lon="7.3846233"><ele>605.1666666666666</ele><time>2026-03-29T11:01:37.161Z</time></trkpt><trkpt lat="45.1361733" lon="7.38463"><ele>605.0</ele><time>2026-03-29T11:01:39.164Z</time></trkpt><trkpt lat="45.1362833" lon="7.38464"><ele>606.1666666666666</ele><time>2026-03-29T11:01:41.159Z</time></trkpt><trkpt lat="45.136395" lon="7.3846283"><ele>607.3333333333333</ele><time>2026-03-29T11:01:43.158Z</time></trkpt><trkpt lat="45.1364583" lon="7.38462"><ele>608.5</ele><time>2026-03-29T11:01:44.161Z</time></trkpt><trkpt lat="45.1365767" lon="7.3845917"><ele>609.6666666666666</ele><time>2026-03-29T11:01:46.163Z</time></trkpt><trkpt lat="45.13664" lon="7.384565"><ele>610.8333333333334</ele><time>2026-03-29T11:01:48.162Z</time></trkpt><trkpt lat="45.136695" lon="7.3844767"><ele>612.0</ele><time>2026-03-29T11:03:29.162Z</time></trkpt><trkpt lat="45.1367933" lon="7.38438"><ele>612.8333333333334</ele><time>2026-03-29T11:03:31.161Z</time></trkpt><trkpt lat="45.1368517" lon="7.3843233"><ele>613.6666666666666</ele><time>2026-03-29T11:03:32.163Z</time></trkpt><trkpt lat="45.136915" lon="7.3842617"><ele>614.5</ele><time>2026-03-29T11:03:33.162Z</time></trkpt><trkpt lat="45.13698" lon="7.3841933"><ele>615.3333333333333</ele><time>2026-03-29T11:03:34.162Z</time></trkpt><trkpt lat="45.1370467" lon="7.384125"><ele>616.1666666666666</ele><time>2026-03-29T11:03:35.16Z</time></trkpt><trkpt lat="45.1371167" lon="7.3840567"><ele>617.0</ele><time>2026-03-29T11:03:36.162Z</time></trkpt><trkpt lat="45.137185" lon="7.3839717"><ele>617.0</ele><time>2026-03-29T11:03:37.163Z</time></trkpt><trkpt lat="45.13724" lon="7.3838767"><ele>617.0</ele><time>2026-03-29T11:03:38.161Z</time></trkpt><trkpt lat="45.1372633" lon="7.38377"><ele>617.0</ele><time>2026-03-29T11:03:39.159Z</time></trkpt><trkpt lat="45.137275" lon="7.3836567"><ele>617.0</ele><time>2026-03-29T11:03:40.16Z</time></trkpt><trkpt lat="45.1372783" lon="7.38353"><ele>617.0</ele><time>2026-03-29T11:03:41.158Z</time></trkpt><trkpt lat="45.1372767" lon="7.38341"><ele>617.0</ele><time>2026-03-29T11:03:42.157Z</time></trkpt><trkpt lat="45.13728" lon="7.3832867"><ele>618.6666666666666</ele><time>2026-03-29T11:03:43.161Z</time></trkpt><trkpt lat="45.1372967" lon="7.3831817"><ele>620.3333333333333</ele><time>2026-03-29T11:03:44.162Z</time></trkpt><trkpt lat="45.137335" lon="7.383105"><ele>622.0</ele><time>2026-03-29T11:03:45.158Z</time></trkpt><trkpt lat="45.1373917" lon="7.3830417"><ele>623.6666666666666</ele><time>2026-03-29T11:03:46.16Z</time></trkpt><trkpt lat="45.1374583" lon="7.382985"><ele>625.3333333333334</ele><time>2026-03-29T11:03:47.158Z</time></trkpt><trkpt lat="45.1375367" lon="7.3829333"><ele>627.0</ele><time>2026-03-29T11:03:48.161Z</time></trkpt><trkpt lat="45.1376283" lon="7.38289"><ele>629.5</ele><time>2026-03-29T11:03:49.16Z</time></trkpt><trkpt lat="45.13774" lon="7.3828567"><ele>632.0</ele><time>2026-03-29T11:03:50.16Z</time></trkpt><trkpt lat="45.1378533" lon="7.3828383"><ele>634.5</ele><time>2026-03-29T11:03:51.158Z</time></trkpt><trkpt lat="45.13797" lon="7.3828267"><ele>637.0</ele><time>2026-03-29T11:03:52.158Z</time></trkpt><trkpt lat="45.1380917" lon="7.3827967"><ele>637.0</ele><time>2026-03-29T11:03:53.159Z</time></trkpt><trkpt lat="45.138215" lon="7.3827617"><ele>637.0</ele><time>2026-03-29T11:03:54.158Z</time></trkpt><trkpt lat="45.13834" lon="7.3827267"><ele>637.0</ele><time>2026-03-29T11:03:55.159Z</time></trkpt><trkpt lat="45.1384617" lon="7.3826983"><ele>637.0</ele><time>2026-03-29T11:03:56.164Z</time></trkpt><trkpt lat="45.138575" lon="7.38269"><ele>637.6</ele><time>2026-03-29T11:03:57.162Z</time></trkpt><trkpt lat="45.138685" lon="7.3826867"><ele>638.2</ele><time>2026-03-29T11:03:58.164Z</time></trkpt><trkpt lat="45.138775" lon="7.38267"><ele>638.8</ele><time>2026-03-29T11:03:59.158Z</time></trkpt><trkpt lat="45.1388583" lon="7.3826367"><ele>639.4</ele><time>2026-03-29T11:04:00.159Z</time></trkpt><trkpt lat="45.1389233" lon="7.3825833"><ele>640.0</ele><time>2026-03-29T11:04:01.158Z</time></trkpt><trkpt lat="45.138905" lon="7.3824417"><ele>640.0</ele><time>2026-03-29T11:04:03.16Z</time></trkpt><trkpt lat="45.138845" lon="7.3823517"><ele>640.0</ele><time>2026-03-29T11:04:04.164Z</time></trkpt><trkpt lat="45.1387817" lon="7.3822467"><ele>640.0</ele><time>2026-03-29T11:04:05.162Z</time></trkpt><trkpt lat="45.13871" lon="7.382125"><ele>640.0</ele><time>2026-03-29T11:04:06.157Z</time></trkpt><trkpt lat="45.13863" lon="7.38199"><ele>640.0</ele><time>2026-03-29T11:04:07.157Z</time></trkpt><trkpt lat="45.1385517" lon="7.3818517"><ele>642.75</ele><time>2026-03-29T11:04:08.16Z</time></trkpt><trkpt lat="45.1384683" lon="7.38171"><ele>645.5</ele><time>2026-03-29T11:04:09.161Z</time></trkpt><trkpt lat="45.1383783" lon="7.3815733"><ele>648.25</ele><time>2026-03-29T11:04:10.161Z</time></trkpt><trkpt lat="45.13828" lon="7.3814533"><ele>651.0</ele><time>2026-03-29T11:04:11.158Z</time></trkpt><trkpt lat="45.1381817" lon="7.38134"><ele>651.5</ele><time>2026-03-29T11:04:12.16Z</time></trkpt><trkpt lat="45.1381033" lon="7.3812567"><ele>652.0</ele><time>2026-03-29T11:04:13.158Z</time></trkpt><trkpt lat="45.138045" lon="7.3811617"><ele>652.5</ele><time>2026-03-29T11:04:14.159Z</time></trkpt><trkpt lat="45.1380083" lon="7.3810633"><ele>653.0</ele><time>2026-03-29T11:04:15.162Z</time></trkpt><trkpt lat="45.1380133" lon="7.38096"><ele>653.5</ele><time>2026-03-29T11:04:16.157Z</time></trkpt><trkpt lat="45.1380567" lon="7.3808717"><ele>654.0</ele><time>2026-03-29T11:04:17.158Z</time></trkpt><trkpt lat="45.13812" lon="7.3808167"><ele>654.0</ele><time>2026-03-29T11:04:18.161Z</time></trkpt><trkpt lat="45.1382067" lon="7.38084"><ele>654.0</ele><time>2026-03-29T11:04:19.162Z</time></trkpt><trkpt lat="45.1382983" lon="7.380895"><ele>654.0</ele><time>2026-03-29T11:04:20.164Z</time></trkpt><trkpt lat="45.1383967" lon="7.380965"><ele>654.0</ele><time>2026-03-29T11:04:21.162Z</time></trkpt><trkpt lat="45.138505" lon="7.3810367"><ele>654.0</ele><time>2026-03-29T11:04:22.16Z</time></trkpt><trkpt lat="45.1386133" lon="7.381095"><ele>656.25</ele><time>2026-03-29T11:04:23.161Z</time></trkpt><trkpt lat="45.1387333" lon="7.3811233"><ele>658.5</ele><time>2026-03-29T11:04:24.162Z</time></trkpt><trkpt lat="45.1388583" lon="7.3811333"><ele>660.75</ele><time>2026-03-29T11:04:25.159Z</time></trkpt><trkpt lat="45.139" lon="7.3811267"><ele>663.0</ele><time>2026-03-29T11:04:26.162Z</time></trkpt><trkpt lat="45.1391483" lon="7.38112"><ele>664.6666666666666</ele><time>2026-03-29T11:04:27.16Z</time></trkpt><trkpt lat="45.1393017" lon="7.38111"><ele>666.3333333333333</ele><time>2026-03-29T11:04:28.159Z</time></trkpt><trkpt lat="45.1394533" lon="7.38111"><ele>668.0</ele><time>2026-03-29T11:04:29.157Z</time></trkpt><trkpt lat="45.1396" lon="7.381125"><ele>668.0</ele><time>2026-03-29T11:04:30.164Z</time></trkpt><trkpt lat="45.1397417" lon="7.3811517"><ele>668.0</ele><time>2026-03-29T11:04:31.161Z</time></trkpt><trkpt lat="45.1398767" lon="7.3811983"><ele>668.0</ele><time>2026-03-29T11:04:32.16Z</time></trkpt><trkpt lat="45.1400017" lon="7.3812817"><ele>668.0</ele><time>2026-03-29T11:04:33.159Z</time></trkpt><trkpt lat="45.1401167" lon="7.3813883"><ele>667.75</ele><time>2026-03-29T11:04:34.161Z</time></trkpt><trkpt lat="45.1402233" lon="7.381505"><ele>667.5</ele><time>2026-03-29T11:04:35.162Z</time></trkpt><trkpt lat="45.14032" lon="7.381625"><ele>667.25</ele><time>2026-03-29T11:04:36.159Z</time></trkpt><trkpt lat="45.1404183" lon="7.381735"><ele>667.0</ele><time>2026-03-29T11:04:37.159Z</time></trkpt><trkpt lat="45.14052" lon="7.3818167"><ele>667.0</ele><time>2026-03-29T11:04:38.164Z</time></trkpt><trkpt lat="45.1406267" lon="7.38186"><ele>667.0</ele><time>2026-03-29T11:04:39.162Z</time></trkpt><trkpt lat="45.1407417" lon="7.38188"><ele>667.0</ele><time>2026-03-29T11:04:40.161Z</time></trkpt><trkpt lat="45.1408433" lon="7.381865"><ele>667.0</ele><time>2026-03-29T11:04:41.162Z</time></trkpt><trkpt lat="45.1409267" lon="7.3818067"><ele>667.0</ele><time>2026-03-29T11:04:42.161Z</time></trkpt><trkpt lat="45.14098" lon="7.3817267"><ele>668.2</ele><time>2026-03-29T11:04:43.158Z</time></trkpt><trkpt lat="45.140995" lon="7.38161"><ele>669.4000000000001</ele><time>2026-03-29T11:04:44.161Z</time></trkpt><trkpt lat="45.1409817" lon="7.38148"><ele>670.5999999999999</ele><time>2026-03-29T11:04:45.162Z</time></trkpt><trkpt lat="45.1409117" lon="7.3813783"><ele>671.8</ele><time>2026-03-29T11:04:46.16Z</time></trkpt><trkpt lat="45.140825" lon="7.38128"><ele>673.0</ele><time>2026-03-29T11:04:47.161Z</time></trkpt><trkpt lat="45.1407417" lon="7.3811517"><ele>673.75</ele><time>2026-03-29T11:04:48.158Z</time></trkpt><trkpt lat="45.140665" lon="7.38101"><ele>674.5</ele><time>2026-03-29T11:04:49.163Z</time></trkpt><trkpt lat="45.1405783" lon="7.3808617"><ele>675.25</ele><time>2026-03-29T11:04:50.161Z</time></trkpt><trkpt lat="45.1404833" lon="7.3807167"><ele>676.0</ele><time>2026-03-29T11:04:51.159Z</time></trkpt><trkpt lat="45.140385" lon="7.3805633"><ele>678.75</ele><time>2026-03-29T11:04:52.157Z</time></trkpt><trkpt lat="45.1402917" lon="7.3804167"><ele>681.5</ele><time>2026-03-29T11:04:53.158Z</time></trkpt><trkpt lat="45.1401983" lon="7.3803"><ele>684.25</ele><time>2026-03-29T11:04:54.163Z</time></trkpt><trkpt lat="45.1400967" lon="7.3802333"><ele>687.0</ele><time>2026-03-29T11:04:55.16Z</time></trkpt><trkpt lat="45.14" lon="7.3801883"><ele>687.0</ele><time>2026-03-29T11:04:56.161Z</time></trkpt><trkpt lat="45.1399167" lon="7.3801283"><ele>687.0</ele><time>2026-03-29T11:04:57.163Z</time></trkpt><trkpt lat="45.1398483" lon="7.3800333"><ele>687.0</ele><time>2026-03-29T11:04:58.162Z</time></trkpt><trkpt lat="45.139805" lon="7.379905"><ele>687.0</ele><time>2026-03-29T11:04:59.161Z</time></trkpt><trkpt lat="45.139775" lon="7.379755"><ele>687.0</ele><time>2026-03-29T11:05:00.164Z</time></trkpt><trkpt lat="45.1397483" lon="7.3795917"><ele>687.5</ele><time>2026-03-29T11:05:01.159Z</time></trkpt><trkpt lat="45.1397267" lon="7.3794183"><ele>688.0</ele><time>2026-03-29T11:05:02.16Z</time></trkpt><trkpt lat="45.1397067" lon="7.3792433"><ele>688.5</ele><time>2026-03-29T11:05:03.161Z</time></trkpt><trkpt lat="45.1396783" lon="7.3790783"><ele>689.0</ele><time>2026-03-29T11:05:04.161Z</time></trkpt><trkpt lat="45.1396283" lon="7.37893"><ele>691.0</ele><time>2026-03-29T11:05:05.16Z</time></trkpt><trkpt lat="45.1395567" lon="7.3787967"><ele>693.0</ele><time>2026-03-29T11:05:06.162Z</time></trkpt><trkpt lat="45.1394717" lon="7.3786683"><ele>695.0</ele><time>2026-03-29T11:05:07.159Z</time></trkpt><trkpt lat="45.1393933" lon="7.3785517"><ele>697.0</ele><time>2026-03-29T11:05:08.161Z</time></trkpt><trkpt lat="45.1393267" lon="7.378445"><ele>697.0</ele><time>2026-03-29T11:05:09.164Z</time></trkpt><trkpt lat="45.1392967" lon="7.3783567"><ele>697.0</ele><time>2026-03-29T11:05:10.159Z</time></trkpt><trkpt lat="45.1393483" lon="7.3782517"><ele>697.0</ele><time>2026-03-29T11:05:12.162Z</time></trkpt><trkpt lat="45.1394617" lon="7.3782967"><ele>697.0</ele><time>2026-03-29T11:05:14.161Z</time></trkpt><trkpt lat="45.139535" lon="7.3783817"><ele>697.0</ele><time>2026-03-29T11:05:15.162Z</time></trkpt><trkpt lat="45.1396283" lon="7.37846"><ele>697.0</ele><time>2026-03-29T11:05:16.159Z</time></trkpt><trkpt lat="45.139745" lon="7.3785283"><ele>697.0</ele><time>2026-03-29T11:05:17.162Z</time></trkpt><trkpt lat="45.1398717" lon="7.378585"><ele>697.0</ele><time>2026-03-29T11:05:18.159Z</time></trkpt><trkpt lat="45.140015" lon="7.3786433"><ele>697.0</ele><time>2026-03-29T11:05:19.163Z</time></trkpt><trkpt lat="45.1401733" lon="7.3786917"><ele>701.3333333333334</ele><time>2026-03-29T11:05:20.158Z</time></trkpt><trkpt lat="45.140335" lon="7.3787283"><ele>705.6666666666666</ele><time>2026-03-29T11:05:21.159Z</time></trkpt><trkpt lat="45.1404983" lon="7.3787617"><ele>710.0</ele><time>2026-03-29T11:05:22.163Z</time></trkpt><trkpt lat="45.1406617" lon="7.378805"><ele>709.3333333333333</ele><time>2026-03-29T11:05:23.165Z</time></trkpt><trkpt lat="45.14083" lon="7.3788567"><ele>708.6666666666666</ele><time>2026-03-29T11:05:24.163Z</time></trkpt><trkpt lat="45.140995" lon="7.3789033"><ele>708.0</ele><time>2026-03-29T11:05:25.16Z</time></trkpt><trkpt lat="45.1411633" lon="7.37893"><ele>708.0</ele><time>2026-03-29T11:05:26.159Z</time></trkpt><trkpt lat="45.1413367" lon="7.3789433"><ele>708.0</ele><time>2026-03-29T11:05:27.159Z</time></trkpt><trkpt lat="45.1415167" lon="7.3789417"><ele>708.0</ele><time>2026-03-29T11:05:28.159Z</time></trkpt><trkpt lat="45.1416933" lon="7.3789433"><ele>711.3333333333334</ele><time>2026-03-29T11:05:29.16Z</time></trkpt><trkpt lat="45.1418617" lon="7.3789483"><ele>714.6666666666667</ele><time>2026-03-29T11:05:30.162Z</time></trkpt><trkpt lat="45.142025" lon="7.378945"><ele>718.0</ele><time>2026-03-29T11:05:31.161Z</time></trkpt><trkpt lat="45.1421783" lon="7.3789283"><ele>718.0</ele><time>2026-03-29T11:05:32.163Z</time></trkpt><trkpt lat="45.142325" lon="7.3788983"><ele>718.0</ele><time>2026-03-29T11:05:33.162Z</time></trkpt><trkpt lat="45.142455" lon="7.37886"><ele>718.0</ele><time>2026-03-29T11:05:34.159Z</time></trkpt><trkpt lat="45.1425717" lon="7.3788383"><ele>718.0</ele><time>2026-03-29T11:05:35.16Z</time></trkpt><trkpt lat="45.1426833" lon="7.3788583"><ele>719.5</ele><time>2026-03-29T11:05:36.157Z</time></trkpt><trkpt lat="45.1427833" lon="7.37891"><ele>721.0</ele><time>2026-03-29T11:05:37.161Z</time></trkpt><trkpt lat="45.14288" lon="7.37899"><ele>722.5</ele><time>2026-03-29T11:05:38.161Z</time></trkpt><trkpt lat="45.142985" lon="7.3790883"><ele>724.0</ele><time>2026-03-29T11:05:39.163Z</time></trkpt><trkpt lat="45.1431" lon="7.3791917"><ele>727.0</ele><time>2026-03-29T11:05:40.168Z</time></trkpt><trkpt lat="45.14323" lon="7.3792917"><ele>730.0</ele><time>2026-03-29T11:05:41.159Z</time></trkpt><trkpt lat="45.1433717" lon="7.379375"><ele>733.0</ele><time>2026-03-29T11:05:42.161Z</time></trkpt><trkpt lat="45.1435217" lon="7.3794433"><ele>733.0</ele><time>2026-03-29T11:05:43.163Z</time></trkpt><trkpt lat="45.1436717" lon="7.3794933"><ele>733.0</ele><time>2026-03-29T11:05:44.161Z</time></trkpt><trkpt lat="45.14382" lon="7.3795183"><ele>733.0</ele><time>2026-03-29T11:05:45.165Z</time></trkpt><trkpt lat="45.1439533" lon="7.3795033"><ele>733.0</ele><time>2026-03-29T11:05:46.165Z</time></trkpt><trkpt lat="45.144065" lon="7.3794467"><ele>736.75</ele><time>2026-03-29T11:05:47.159Z</time></trkpt><trkpt lat="45.14416" lon="7.379345"><ele>740.5</ele><time>2026-03-29T11:05:48.16Z</time></trkpt><trkpt lat="45.14425" lon="7.37922"><ele>744.25</ele><time>2026-03-29T11:05:49.161Z</time></trkpt><trkpt lat="45.1443417" lon="7.379105"><ele>748.0</ele><time>2026-03-29T11:05:50.162Z</time></trkpt><trkpt lat="45.1444333" lon="7.379025"><ele>748.0</ele><time>2026-03-29T11:05:51.162Z</time></trkpt><trkpt lat="45.1445233" lon="7.37899"><ele>748.0</ele><time>2026-03-29T11:05:52.164Z</time></trkpt><trkpt lat="45.144615" lon="7.3790083"><ele>748.0</ele><time>2026-03-29T11:05:53.159Z</time></trkpt><trkpt lat="45.1447067" lon="7.37908"><ele>748.0</ele><time>2026-03-29T11:05:54.159Z</time></trkpt><trkpt lat="45.1447917" lon="7.379195"><ele>748.0</ele><time>2026-03-29T11:05:55.161Z</time></trkpt><trkpt lat="45.1448583" lon="7.379335"><ele>748.8</ele><time>2026-03-29T11:05:56.163Z</time></trkpt><trkpt lat="45.1449033" lon="7.3794867"><ele>749.5999999999999</ele><time>2026-03-29T11:05:57.159Z</time></trkpt><trkpt lat="45.1449467" lon="7.3796167"><ele>750.4000000000001</ele><time>2026-03-29T11:05:58.16Z</time></trkpt><trkpt lat="45.1450033" lon="7.3797183"><ele>751.2</ele><time>2026-03-29T11:05:59.162Z</time></trkpt><trkpt lat="45.1450617" lon="7.3798"><ele>752.0</ele><time>2026-03-29T11:06:00.162Z</time></trkpt><trkpt lat="45.14513" lon="7.379895"><ele>752.0</ele><time>2026-03-29T11:06:01.159Z</time></trkpt><trkpt lat="45.14518" lon="7.3800017"><ele>752.0</ele><time>2026-03-29T11:06:02.159Z</time></trkpt><trkpt lat="45.1452083" lon="7.3801383"><ele>752.0</ele><time>2026-03-29T11:06:03.162Z</time></trkpt><trkpt lat="45.1452333" lon="7.3802767"><ele>752.0</ele><time>2026-03-29T11:06:04.16Z</time></trkpt><trkpt lat="45.14527" lon="7.38041"><ele>752.0</ele><time>2026-03-29T11:06:05.163Z</time></trkpt><trkpt lat="45.1453317" lon="7.3805317"><ele>754.5</ele><time>2026-03-29T11:06:06.162Z</time></trkpt><trkpt lat="45.14542" lon="7.3806217"><ele>757.0</ele><time>2026-03-29T11:06:07.16Z</time></trkpt><trkpt lat="45.1455183" lon="7.380675"><ele>759.5</ele><time>2026-03-29T11:06:08.166Z</time></trkpt><trkpt lat="45.1456333" lon="7.3806867"><ele>762.0</ele><time>2026-03-29T11:06:09.162Z</time></trkpt><trkpt lat="45.1457567" lon="7.3806417"><ele>762.0</ele><time>2026-03-29T11:06:10.159Z</time></trkpt><trkpt lat="45.1458733" lon="7.3805167"><ele>762.0</ele><time>2026-03-29T11:06:11.159Z</time></trkpt><trkpt lat="45.14598" lon="7.3803667"><ele>762.0</ele><time>2026-03-29T11:06:12.157Z</time></trkpt><trkpt lat="45.1460733" lon="7.380225"><ele>762.0</ele><time>2026-03-29T11:06:13.165Z</time></trkpt><trkpt lat="45.1461683" lon="7.3801283"><ele>762.0</ele><time>2026-03-29T11:06:14.158Z</time></trkpt><trkpt lat="45.1462583" lon="7.3800967"><ele>762.0</ele><time>2026-03-29T11:06:15.162Z</time></trkpt><trkpt lat="45.146345" lon="7.3801367"><ele>762.0</ele><time>2026-03-29T11:06:16.158Z</time></trkpt><trkpt lat="45.1464183" lon="7.380235"><ele>762.0</ele><time>2026-03-29T11:06:17.158Z</time></trkpt><trkpt lat="45.1464733" lon="7.3803833"><ele>762.0</ele><time>2026-03-29T11:06:18.158Z</time></trkpt><trkpt lat="45.1465333" lon="7.3805417"><ele>766.25</ele><time>2026-03-29T11:06:19.158Z</time></trkpt><trkpt lat="45.14659" lon="7.3807217"><ele>770.5</ele><time>2026-03-29T11:06:20.16Z</time></trkpt><trkpt lat="45.1466567" lon="7.3808983"><ele>774.75</ele><time>2026-03-29T11:06:21.163Z</time></trkpt><trkpt lat="45.146745" lon="7.3810567"><ele>779.0</ele><time>2026-03-29T11:06:22.162Z</time></trkpt><trkpt lat="45.1468567" lon="7.381185"><ele>779.0</ele><time>2026-03-29T11:06:23.16Z</time></trkpt><trkpt lat="45.1469783" lon="7.3813083"><ele>779.0</ele><time>2026-03-29T11:06:24.163Z</time></trkpt><trkpt lat="45.1471033" lon="7.38144"><ele>779.0</ele><time>2026-03-29T11:06:25.161Z</time></trkpt><trkpt lat="45.14723" lon="7.3815567"><ele>776.4000000000001</ele><time>2026-03-29T11:06:26.163Z</time></trkpt><trkpt lat="45.1473567" lon="7.38164"><ele>773.8</ele><time>2026-03-29T11:06:27.16Z</time></trkpt><trkpt lat="45.1474533" lon="7.3817233"><ele>771.2</ele><time>2026-03-29T11:06:28.162Z</time></trkpt><trkpt lat="45.1475233" lon="7.381815"><ele>768.5999999999999</ele><time>2026-03-29T11:06:29.158Z</time></trkpt><trkpt lat="45.14754" lon="7.3819383"><ele>766.0</ele><time>2026-03-29T11:06:30.16Z</time></trkpt><trkpt lat="45.1475067" lon="7.38208"><ele>772.5</ele><time>2026-03-29T11:06:31.162Z</time></trkpt><trkpt lat="45.1474517" lon="7.3822417"><ele>779.0</ele><time>2026-03-29T11:06:32.161Z</time></trkpt><trkpt lat="45.1474" lon="7.3824083"><ele>785.5</ele><time>2026-03-29T11:06:33.162Z</time></trkpt><trkpt lat="45.1473783" lon="7.3825767"><ele>792.0</ele><time>2026-03-29T11:06:34.16Z</time></trkpt><trkpt lat="45.1473867" lon="7.3827433"><ele>787.6</ele><time>2026-03-29T11:06:35.16Z</time></trkpt><trkpt lat="45.1473767" lon="7.3829033"><ele>783.2</ele><time>2026-03-29T11:06:36.161Z</time></trkpt><trkpt lat="45.1473283" lon="7.38303"><ele>778.8</ele><time>2026-03-29T11:06:37.163Z</time></trkpt><trkpt lat="45.1472683" lon="7.3831467"><ele>774.4</ele><time>2026-03-29T11:06:38.16Z</time></trkpt><trkpt lat="45.1472267" lon="7.3832683"><ele>770.0</ele><time>2026-03-29T11:06:39.16Z</time></trkpt><trkpt lat="45.1472233" lon="7.38341"><ele>770.0</ele><time>2026-03-29T11:06:40.162Z</time></trkpt><trkpt lat="45.1472583" lon="7.38355"><ele>770.0</ele><time>2026-03-29T11:06:41.159Z</time></trkpt><trkpt lat="45.1473267" lon="7.3836683"><ele>770.0</ele><time>2026-03-29T11:06:42.158Z</time></trkpt><trkpt lat="45.14742" lon="7.3837467"><ele>770.0</ele><time>2026-03-29T11:06:43.161Z</time></trkpt><trkpt lat="45.1474983" lon="7.3838017"><ele>770.0</ele><time>2026-03-29T11:06:44.161Z</time></trkpt><trkpt lat="45.14763" lon="7.3837583"><ele>776.75</ele><time>2026-03-29T11:06:45.165Z</time></trkpt><trkpt lat="45.147765" lon="7.383685"><ele>783.5</ele><time>2026-03-29T11:06:46.159Z</time></trkpt><trkpt lat="45.14788" lon="7.383605"><ele>790.25</ele><time>2026-03-29T11:06:47.159Z</time></trkpt><trkpt lat="45.1479833" lon="7.3835217"><ele>797.0</ele><time>2026-03-29T11:06:48.159Z</time></trkpt><trkpt lat="45.1480767" lon="7.3833933"><ele>797.0</ele><time>2026-03-29T11:06:49.16Z</time></trkpt><trkpt lat="45.148165" lon="7.383255"><ele>797.0</ele><time>2026-03-29T11:06:50.16Z</time></trkpt><trkpt lat="45.1482717" lon="7.3831267"><ele>797.0</ele><time>2026-03-29T11:06:51.163Z</time></trkpt><trkpt lat="45.1483933" lon="7.3830233"><ele>797.0</ele><time>2026-03-29T11:06:52.161Z</time></trkpt><trkpt lat="45.148525" lon="7.382955"><ele>798.0</ele><time>2026-03-29T11:06:53.16Z</time></trkpt><trkpt lat="45.148645" lon="7.3829183"><ele>799.0</ele><time>2026-03-29T11:06:54.16Z</time></trkpt><trkpt lat="45.14875" lon="7.38292"><ele>800.0</ele><time>2026-03-29T11:06:55.159Z</time></trkpt><trkpt lat="45.1488383" lon="7.382975"><ele>801.0</ele><time>2026-03-29T11:06:56.161Z</time></trkpt><trkpt lat="45.1489017" lon="7.383055"><ele>802.0</ele><time>2026-03-29T11:06:57.162Z</time></trkpt><trkpt lat="45.1489733" lon="7.3831533"><ele>802.6</ele><time>2026-03-29T11:06:58.16Z</time></trkpt><trkpt lat="45.1490433" lon="7.3832117"><ele>803.2</ele><time>2026-03-29T11:06:59.16Z</time></trkpt><trkpt lat="45.14914" lon="7.38324"><ele>803.8</ele><time>2026-03-29T11:07:00.159Z</time></trkpt><trkpt lat="45.14925" lon="7.3832367"><ele>804.4</ele><time>2026-03-29T11:07:01.16Z</time></trkpt><trkpt lat="45.1493717" lon="7.38324"><ele>805.0</ele><time>2026-03-29T11:07:02.163Z</time></trkpt><trkpt lat="45.1494933" lon="7.3832783"><ele>805.0</ele><time>2026-03-29T11:07:03.162Z</time></trkpt><trkpt lat="45.1495983" lon="7.383345"><ele>805.0</ele><time>2026-03-29T11:07:04.16Z</time></trkpt><trkpt lat="45.1497033" lon="7.383395"><ele>805.0</ele><time>2026-03-29T11:07:05.162Z</time></trkpt><trkpt lat="45.1498117" lon="7.3833917"><ele>805.0</ele><time>2026-03-29T11:07:06.168Z</time></trkpt><trkpt lat="45.1499217" lon="7.3833533"><ele>805.0</ele><time>2026-03-29T11:07:07.164Z</time></trkpt><trkpt lat="45.15006" lon="7.383305"><ele>805.25</ele><time>2026-03-29T11:07:08.163Z</time></trkpt><trkpt lat="45.1501867" lon="7.383255"><ele>805.5</ele><time>2026-03-29T11:07:09.163Z</time></trkpt><trkpt lat="45.1503" lon="7.3831867"><ele>805.75</ele><time>2026-03-29T11:07:10.162Z</time></trkpt><trkpt lat="45.1503817" lon="7.3830933"><ele>806.0</ele><time>2026-03-29T11:07:11.161Z</time></trkpt><trkpt lat="45.1504283" lon="7.3829567"><ele>811.0</ele><time>2026-03-29T11:07:12.165Z</time></trkpt><trkpt lat="45.15045" lon="7.382775"><ele>816.0</ele><time>2026-03-29T11:07:13.165Z</time></trkpt><trkpt lat="45.1504617" lon="7.3825883"><ele>821.0</ele><time>2026-03-29T11:07:14.161Z</time></trkpt><trkpt lat="45.1504767" lon="7.3824217"><ele>826.0</ele><time>2026-03-29T11:07:15.161Z</time></trkpt><trkpt lat="45.1505167" lon="7.3822683"><ele>823.5</ele><time>2026-03-29T11:07:16.165Z</time></trkpt><trkpt lat="45.1505867" lon="7.3821433"><ele>821.0</ele><time>2026-03-29T11:07:17.168Z</time></trkpt><trkpt lat="45.150685" lon="7.382065"><ele>818.5</ele><time>2026-03-29T11:07:18.161Z</time></trkpt><trkpt lat="45.1508067" lon="7.3820267"><ele>816.0</ele><time>2026-03-29T11:07:19.157Z</time></trkpt><trkpt lat="45.150935" lon="7.381985"><ele>816.0</ele><time>2026-03-29T11:07:20.159Z</time></trkpt><trkpt lat="45.151045" lon="7.38193"><ele>816.0</ele><time>2026-03-29T11:07:21.158Z</time></trkpt><trkpt lat="45.15113" lon="7.381845"><ele>816.0</ele><time>2026-03-29T11:07:22.163Z</time></trkpt><trkpt lat="45.1511883" lon="7.3817233"><ele>816.0</ele><time>2026-03-29T11:07:23.16Z</time></trkpt><trkpt lat="45.151215" lon="7.381575"><ele>816.0</ele><time>2026-03-29T11:07:24.164Z</time></trkpt><trkpt lat="45.1511933" lon="7.3813667"><ele>816.3333333333333</ele><time>2026-03-29T11:07:25.161Z</time></trkpt><trkpt lat="45.151175" lon="7.3811517"><ele>816.6666666666666</ele><time>2026-03-29T11:07:26.159Z</time></trkpt><trkpt lat="45.1511667" lon="7.38094"><ele>817.0</ele><time>2026-03-29T11:07:27.162Z</time></trkpt><trkpt lat="45.1511467" lon="7.3807317"><ele>817.0</ele><time>2026-03-29T11:07:28.166Z</time></trkpt><trkpt lat="45.1511133" lon="7.38052"><ele>817.0</ele><time>2026-03-29T11:07:29.162Z</time></trkpt><trkpt lat="45.1510767" lon="7.3802933"><ele>817.0</ele><time>2026-03-29T11:07:30.163Z</time></trkpt><trkpt lat="45.1510333" lon="7.3800633"><ele>816.0</ele><time>2026-03-29T11:07:31.158Z</time></trkpt><trkpt lat="45.150995" lon="7.3798567"><ele>815.0</ele><time>2026-03-29T11:07:32.157Z</time></trkpt><trkpt lat="45.15094" lon="7.3796567"><ele>814.0</ele><time>2026-03-29T11:07:33.162Z</time></trkpt><trkpt lat="45.1509367" lon="7.3794867"><ele>813.0</ele><time>2026-03-29T11:07:34.158Z</time></trkpt><trkpt lat="45.15097" lon="7.3793417"><ele>813.0</ele><time>2026-03-29T11:07:35.16Z</time></trkpt><trkpt lat="45.15106" lon="7.379235"><ele>813.0</ele><time>2026-03-29T11:07:36.164Z</time></trkpt><trkpt lat="45.1511483" lon="7.3791317"><ele>813.0</ele><time>2026-03-29T11:07:37.158Z</time></trkpt><trkpt lat="45.1512183" lon="7.37901"><ele>813.0</ele><time>2026-03-29T11:07:38.163Z</time></trkpt><trkpt lat="45.1512733" lon="7.3788467"><ele>819.3333333333333</ele><time>2026-03-29T11:07:39.16Z</time></trkpt><trkpt lat="45.1513417" lon="7.378655"><ele>825.6666666666666</ele><time>2026-03-29T11:07:40.157Z</time></trkpt><trkpt lat="45.1514267" lon="7.378455"><ele>832.0</ele><time>2026-03-29T11:07:41.161Z</time></trkpt><trkpt lat="45.1515167" lon="7.378235"><ele>826.3333333333333</ele><time>2026-03-29T11:07:42.159Z</time></trkpt><trkpt lat="45.1515917" lon="7.3779933"><ele>820.6666666666667</ele><time>2026-03-29T11:07:43.161Z</time></trkpt><trkpt lat="45.1516683" lon="7.3777467"><ele>815.0</ele><time>2026-03-29T11:07:44.159Z</time></trkpt><trkpt lat="45.1517517" lon="7.3775"><ele>815.0</ele><time>2026-03-29T11:07:45.158Z</time></trkpt><trkpt lat="45.1518567" lon="7.3772667"><ele>815.0</ele><time>2026-03-29T11:07:46.162Z</time></trkpt><trkpt lat="45.1519667" lon="7.3770383"><ele>815.0</ele><time>2026-03-29T11:07:47.16Z</time></trkpt><trkpt lat="45.15208" lon="7.376825"><ele>822.0</ele><time>2026-03-29T11:07:48.161Z</time></trkpt><trkpt lat="45.15219" lon="7.3766333"><ele>829.0</ele><time>2026-03-29T11:07:49.16Z</time></trkpt><trkpt lat="45.1522783" lon="7.376445"><ele>836.0</ele><time>2026-03-29T11:07:50.161Z</time></trkpt><trkpt lat="45.1523317" lon="7.3762633"><ele>830.4</ele><time>2026-03-29T11:07:51.163Z</time></trkpt><trkpt lat="45.1523783" lon="7.3761133"><ele>824.8</ele><time>2026-03-29T11:07:52.161Z</time></trkpt><trkpt lat="45.152425" lon="7.3759983"><ele>819.1999999999999</ele><time>2026-03-29T11:07:53.162Z</time></trkpt><trkpt lat="45.1524767" lon="7.3759433"><ele>813.5999999999999</ele><time>2026-03-29T11:07:54.158Z</time></trkpt><trkpt lat="45.1526" lon="7.3759967"><ele>808.0</ele><time>2026-03-29T11:07:56.159Z</time></trkpt><trkpt lat="45.152625" lon="7.3761217"><ele>808.0</ele><time>2026-03-29T11:07:57.16Z</time></trkpt><trkpt lat="45.152665" lon="7.3762867"><ele>808.0</ele><time>2026-03-29T11:07:58.163Z</time></trkpt><trkpt lat="45.1527117" lon="7.3764683"><ele>808.0</ele><time>2026-03-29T11:07:59.159Z</time></trkpt><trkpt lat="45.1527667" lon="7.37667"><ele>808.0</ele><time>2026-03-29T11:08:00.16Z</time></trkpt><trkpt lat="45.1528183" lon="7.3768767"><ele>807.25</ele><time>2026-03-29T11:08:01.163Z</time></trkpt><trkpt lat="45.1528483" lon="7.37707"><ele>806.5</ele><time>2026-03-29T11:08:02.162Z</time></trkpt><trkpt lat="45.1528967" lon="7.37727"><ele>805.75</ele><time>2026-03-29T11:08:03.161Z</time></trkpt><trkpt lat="45.15295" lon="7.37746"><ele>805.0</ele><time>2026-03-29T11:08:04.161Z</time></trkpt><trkpt lat="45.1530083" lon="7.3776383"><ele>806.0</ele><time>2026-03-29T11:08:05.16Z</time></trkpt><trkpt lat="45.1530983" lon="7.377795"><ele>807.0</ele><time>2026-03-29T11:08:06.161Z</time></trkpt><trkpt lat="45.1532067" lon="7.3779333"><ele>808.0</ele><time>2026-03-29T11:08:07.163Z</time></trkpt><trkpt lat="45.153335" lon="7.3780383"><ele>809.0</ele><time>2026-03-29T11:08:08.162Z</time></trkpt><trkpt lat="45.15348" lon="7.3781"><ele>806.0</ele><time>2026-03-29T11:08:09.163Z</time></trkpt><trkpt lat="45.1536317" lon="7.37813"><ele>803.0</ele><time>2026-03-29T11:08:10.162Z</time></trkpt><trkpt lat="45.15378" lon="7.378155"><ele>800.0</ele><time>2026-03-29T11:08:11.159Z</time></trkpt><trkpt lat="45.1539133" lon="7.3781667"><ele>797.0</ele><time>2026-03-29T11:08:12.159Z</time></trkpt><trkpt lat="45.1540283" lon="7.37814"><ele>798.8</ele><time>2026-03-29T11:08:13.162Z</time></trkpt><trkpt lat="45.154125" lon="7.378065"><ele>800.6</ele><time>2026-03-29T11:08:14.162Z</time></trkpt><trkpt lat="45.1542167" lon="7.378"><ele>802.4</ele><time>2026-03-29T11:08:15.159Z</time></trkpt><trkpt lat="45.154305" lon="7.3779833"><ele>804.1999999999999</ele><time>2026-03-29T11:08:16.162Z</time></trkpt><trkpt lat="45.1543917" lon="7.3780083"><ele>806.0</ele><time>2026-03-29T11:08:17.161Z</time></trkpt><trkpt lat="45.15446" lon="7.3781017"><ele>806.0</ele><time>2026-03-29T11:08:18.165Z</time></trkpt><trkpt lat="45.1545333" lon="7.37818"><ele>806.0</ele><time>2026-03-29T11:08:19.162Z</time></trkpt><trkpt lat="45.1546033" lon="7.3782017"><ele>806.0</ele><time>2026-03-29T11:08:20.16Z</time></trkpt><trkpt lat="45.1546633" lon="7.378075"><ele>806.0</ele><time>2026-03-29T11:08:22.157Z</time></trkpt><trkpt lat="45.1546233" lon="7.3779733"><ele>806.0</ele><time>2026-03-29T11:08:23.16Z</time></trkpt><trkpt lat="45.154555" lon="7.3778733"><ele>809.75</ele><time>2026-03-29T11:08:24.162Z</time></trkpt><trkpt lat="45.1544683" lon="7.3777583"><ele>813.5</ele><time>2026-03-29T11:08:25.161Z</time></trkpt><trkpt lat="45.15436" lon="7.3776417"><ele>817.25</ele><time>2026-03-29T11:08:26.16Z</time></trkpt><trkpt lat="45.15425" lon="7.3775367"><ele>821.0</ele><time>2026-03-29T11:08:27.157Z</time></trkpt><trkpt lat="45.154135" lon="7.3774533"><ele>821.0</ele><time>2026-03-29T11:08:28.16Z</time></trkpt><trkpt lat="45.1540383" lon="7.3773767"><ele>821.0</ele><time>2026-03-29T11:08:29.164Z</time></trkpt><trkpt lat="45.1539867" lon="7.3772967"><ele>821.0</ele><time>2026-03-29T11:08:30.16Z</time></trkpt><trkpt lat="45.1540033" lon="7.3771933"><ele>821.0</ele><time>2026-03-29T11:08:32.16Z</time></trkpt><trkpt lat="45.1541517" lon="7.377215"><ele>821.0</ele><time>2026-03-29T11:08:34.16Z</time></trkpt><trkpt lat="45.15426" lon="7.3772533"><ele>821.0</ele><time>2026-03-29T11:08:35.161Z</time></trkpt><trkpt lat="45.1543833" lon="7.3773017"><ele>821.0</ele><time>2026-03-29T11:08:36.161Z</time></trkpt><trkpt lat="45.1545167" lon="7.3773483"><ele>821.0</ele><time>2026-03-29T11:08:37.159Z</time></trkpt><trkpt lat="45.1546633" lon="7.3774"><ele>821.0</ele><time>2026-03-29T11:08:38.157Z</time></trkpt><trkpt lat="45.1548133" lon="7.377485"><ele>826.6666666666667</ele><time>2026-03-29T11:08:39.161Z</time></trkpt><trkpt lat="45.1549567" lon="7.3776083"><ele>832.3333333333333</ele><time>2026-03-29T11:08:40.16Z</time></trkpt><trkpt lat="45.1550817" lon="7.3777433"><ele>838.0</ele><time>2026-03-29T11:08:41.16Z</time></trkpt><trkpt lat="45.155195" lon="7.3778767"><ele>833.75</ele><time>2026-03-29T11:08:42.162Z</time></trkpt><trkpt lat="45.15528" lon="7.3780267"><ele>829.5</ele><time>2026-03-29T11:08:43.157Z</time></trkpt><trkpt lat="45.155345" lon="7.3781683"><ele>825.25</ele><time>2026-03-29T11:08:44.161Z</time></trkpt><trkpt lat="45.1554167" lon="7.3782883"><ele>821.0</ele><time>2026-03-29T11:08:45.161Z</time></trkpt><trkpt lat="45.155505" lon="7.3783817"><ele>821.0</ele><time>2026-03-29T11:08:46.162Z</time></trkpt><trkpt lat="45.1556017" lon="7.3784567"><ele>821.0</ele><time>2026-03-29T11:08:47.161Z</time></trkpt><trkpt lat="45.15572" lon="7.3784883"><ele>821.0</ele><time>2026-03-29T11:08:48.165Z</time></trkpt><trkpt lat="45.15585" lon="7.3784667"><ele>821.0</ele><time>2026-03-29T11:08:49.16Z</time></trkpt><trkpt lat="45.1559633" lon="7.3783883"><ele>826.0</ele><time>2026-03-29T11:08:50.163Z</time></trkpt><trkpt lat="45.1560683" lon="7.378255"><ele>831.0</ele><time>2026-03-29T11:08:51.162Z</time></trkpt><trkpt lat="45.1561617" lon="7.37809"><ele>836.0</ele><time>2026-03-29T11:08:52.162Z</time></trkpt><trkpt lat="45.1562633" lon="7.3779167"><ele>841.0</ele><time>2026-03-29T11:08:53.161Z</time></trkpt><trkpt lat="45.1563883" lon="7.3777867"><ele>846.3333333333333</ele><time>2026-03-29T11:08:54.16Z</time></trkpt><trkpt lat="45.1565333" lon="7.3776833"><ele>851.6666666666667</ele><time>2026-03-29T11:08:55.163Z</time></trkpt><trkpt lat="45.1566883" lon="7.3775833"><ele>857.0</ele><time>2026-03-29T11:08:56.167Z</time></trkpt><trkpt lat="45.15683" lon="7.37745"><ele>857.0</ele><time>2026-03-29T11:08:57.161Z</time></trkpt><trkpt lat="45.1569617" lon="7.3773233"><ele>857.0</ele><time>2026-03-29T11:08:58.16Z</time></trkpt><trkpt lat="45.1570917" lon="7.377225"><ele>857.0</ele><time>2026-03-29T11:08:59.163Z</time></trkpt><trkpt lat="45.1572283" lon="7.377195"><ele>857.0</ele><time>2026-03-29T11:09:00.161Z</time></trkpt><trkpt lat="45.15737" lon="7.3771867"><ele>859.6666666666667</ele><time>2026-03-29T11:09:01.162Z</time></trkpt><trkpt lat="45.1575217" lon="7.3771583"><ele>862.3333333333333</ele><time>2026-03-29T11:09:02.163Z</time></trkpt><trkpt lat="45.1576483" lon="7.3770783"><ele>865.0</ele><time>2026-03-29T11:09:03.16Z</time></trkpt><trkpt lat="45.1577917" lon="7.376965"><ele>865.0</ele><time>2026-03-29T11:09:04.161Z</time></trkpt><trkpt lat="45.1579233" lon="7.376775"><ele>865.0</ele><time>2026-03-29T11:09:05.16Z</time></trkpt><trkpt lat="45.1580583" lon="7.3765633"><ele>865.0</ele><time>2026-03-29T11:09:06.163Z</time></trkpt><trkpt lat="45.1581983" lon="7.37637"><ele>869.3333333333333</ele><time>2026-03-29T11:09:07.161Z</time></trkpt><trkpt lat="45.15836" lon="7.3762"><ele>873.6666666666667</ele><time>2026-03-29T11:09:08.162Z</time></trkpt><trkpt lat="45.15851" lon="7.3760683"><ele>878.0</ele><time>2026-03-29T11:09:09.161Z</time></trkpt><trkpt lat="45.1586417" lon="7.3759267"><ele>878.0</ele><time>2026-03-29T11:09:10.161Z</time></trkpt><trkpt lat="45.1587583" lon="7.3757567"><ele>878.0</ele><time>2026-03-29T11:09:11.16Z</time></trkpt><trkpt lat="45.158865" lon="7.3755817"><ele>878.0</ele><time>2026-03-29T11:09:12.162Z</time></trkpt><trkpt lat="45.158955" lon="7.3754017"><ele>877.25</ele><time>2026-03-29T11:09:13.163Z</time></trkpt><trkpt lat="45.1590217" lon="7.3752283"><ele>876.5</ele><time>2026-03-29T11:09:14.159Z</time></trkpt><trkpt lat="45.1590517" lon="7.37508"><ele>875.75</ele><time>2026-03-29T11:09:15.161Z</time></trkpt><trkpt lat="45.1590317" lon="7.3749217"><ele>875.0</ele><time>2026-03-29T11:09:16.162Z</time></trkpt><trkpt lat="45.1589883" lon="7.374755"><ele>877.2</ele><time>2026-03-29T11:09:17.163Z</time></trkpt><trkpt lat="45.1589417" lon="7.374575"><ele>879.4</ele><time>2026-03-29T11:09:18.163Z</time></trkpt><trkpt lat="45.1589217" lon="7.3744167"><ele>881.5999999999999</ele><time>2026-03-29T11:09:19.162Z</time></trkpt><trkpt lat="45.1589367" lon="7.37428"><ele>883.8</ele><time>2026-03-29T11:09:20.16Z</time></trkpt><trkpt lat="45.158995" lon="7.374165"><ele>886.0</ele><time>2026-03-29T11:09:21.164Z</time></trkpt><trkpt lat="45.1590917" lon="7.37406"><ele>886.0</ele><time>2026-03-29T11:09:22.161Z</time></trkpt><trkpt lat="45.1591883" lon="7.373955"><ele>886.0</ele><time>2026-03-29T11:09:23.166Z</time></trkpt><trkpt lat="45.1592783" lon="7.373835"><ele>886.0</ele><time>2026-03-29T11:09:24.162Z</time></trkpt><trkpt lat="45.15932" lon="7.3736983"><ele>886.0</ele><time>2026-03-29T11:09:25.163Z</time></trkpt><trkpt lat="45.1593083" lon="7.3735333"><ele>889.6666666666666</ele><time>2026-03-29T11:09:26.163Z</time></trkpt><trkpt lat="45.1592733" lon="7.3733467"><ele>893.3333333333333</ele><time>2026-03-29T11:09:27.161Z</time></trkpt><trkpt lat="45.1592217" lon="7.3731383"><ele>897.0</ele><time>2026-03-29T11:09:28.161Z</time></trkpt><trkpt lat="45.1591783" lon="7.37291"><ele>899.0</ele><time>2026-03-29T11:09:29.163Z</time></trkpt><trkpt lat="45.15916" lon="7.37266"><ele>901.0</ele><time>2026-03-29T11:09:30.159Z</time></trkpt><trkpt lat="45.15917" lon="7.372415"><ele>903.0</ele><time>2026-03-29T11:09:31.158Z</time></trkpt><trkpt lat="45.1592133" lon="7.37219"><ele>908.3333333333333</ele><time>2026-03-29T11:09:32.161Z</time></trkpt><trkpt lat="45.1592883" lon="7.371985"><ele>913.6666666666666</ele><time>2026-03-29T11:09:33.161Z</time></trkpt><trkpt lat="45.1593683" lon="7.3717883"><ele>919.0</ele><time>2026-03-29T11:09:34.166Z</time></trkpt><trkpt lat="45.1594433" lon="7.3715867"><ele>919.0</ele><time>2026-03-29T11:09:35.165Z</time></trkpt><trkpt lat="45.1594933" lon="7.3713817"><ele>919.0</ele><time>2026-03-29T11:09:36.163Z</time></trkpt><trkpt lat="45.1595333" lon="7.371165"><ele>919.0</ele><time>2026-03-29T11:09:37.162Z</time></trkpt><trkpt lat="45.1595633" lon="7.37093"><ele>924.3333333333333</ele><time>2026-03-29T11:09:38.166Z</time></trkpt><trkpt lat="45.1595833" lon="7.37068"><ele>929.6666666666667</ele><time>2026-03-29T11:09:39.163Z</time></trkpt><trkpt lat="45.1595867" lon="7.3704317"><ele>935.0</ele><time>2026-03-29T11:09:40.161Z</time></trkpt><trkpt lat="45.1595583" lon="7.3702167"><ele>935.6</ele><time>2026-03-29T11:09:41.162Z</time></trkpt><trkpt lat="45.1595267" lon="7.3700283"><ele>936.2</ele><time>2026-03-29T11:09:42.161Z</time></trkpt><trkpt lat="45.1594983" lon="7.369885"><ele>936.8</ele><time>2026-03-29T11:09:43.162Z</time></trkpt><trkpt lat="45.1595033" lon="7.3697633"><ele>937.4</ele><time>2026-03-29T11:09:44.159Z</time></trkpt><trkpt lat="45.15953" lon="7.3696483"><ele>938.0</ele><time>2026-03-29T11:09:45.166Z</time></trkpt><trkpt lat="45.1595883" lon="7.3695517"><ele>938.25</ele><time>2026-03-29T11:09:46.16Z</time></trkpt><trkpt lat="45.1596933" lon="7.3694883"><ele>938.5</ele><time>2026-03-29T11:09:47.16Z</time></trkpt><trkpt lat="45.1598317" lon="7.3694833"><ele>938.75</ele><time>2026-03-29T11:09:48.163Z</time></trkpt><trkpt lat="45.1599633" lon="7.3695167"><ele>939.0</ele><time>2026-03-29T11:09:49.162Z</time></trkpt><trkpt lat="45.1600633" lon="7.3696017"><ele>932.6</ele><time>2026-03-29T11:09:50.164Z</time></trkpt><trkpt lat="45.1601167" lon="7.36972"><ele>926.2</ele><time>2026-03-29T11:09:51.16Z</time></trkpt><trkpt lat="45.1601817" lon="7.3698117"><ele>919.8000000000001</ele><time>2026-03-29T11:09:52.164Z</time></trkpt><trkpt lat="45.1602467" lon="7.3698833"><ele>913.4000000000001</ele><time>2026-03-29T11:09:53.163Z</time></trkpt><trkpt lat="45.160335" lon="7.3698817"><ele>907.0</ele><time>2026-03-29T11:09:54.157Z</time></trkpt><trkpt lat="45.1604367" lon="7.3698683"><ele>907.0</ele><time>2026-03-29T11:09:55.159Z</time></trkpt><trkpt lat="45.1605483" lon="7.3698767"><ele>907.0</ele><time>2026-03-29T11:09:56.161Z</time></trkpt><trkpt lat="45.1606583" lon="7.369905"><ele>907.0</ele><time>2026-03-29T11:09:57.162Z</time></trkpt><trkpt lat="45.1607717" lon="7.3699033"><ele>907.0</ele><time>2026-03-29T11:09:58.164Z</time></trkpt><trkpt lat="45.160885" lon="7.36986"><ele>908.4000000000001</ele><time>2026-03-29T11:09:59.161Z</time></trkpt><trkpt lat="45.16098" lon="7.3697617"><ele>909.8000000000001</ele><time>2026-03-29T11:10:00.162Z</time></trkpt><trkpt lat="45.1610583" lon="7.36966"><ele>911.2</ele><time>2026-03-29T11:10:01.16Z</time></trkpt><trkpt lat="45.1611467" lon="7.3695833"><ele>912.6</ele><time>2026-03-29T11:10:02.162Z</time></trkpt><trkpt lat="45.1612367" lon="7.369565"><ele>914.0</ele><time>2026-03-29T11:10:03.161Z</time></trkpt><trkpt lat="45.1613333" lon="7.369615"><ele>914.0</ele><time>2026-03-29T11:10:04.163Z</time></trkpt><trkpt lat="45.1614217" lon="7.3697167"><ele>914.0</ele><time>2026-03-29T11:10:05.163Z</time></trkpt><trkpt lat="45.16152" lon="7.3698133"><ele>914.0</ele><time>2026-03-29T11:10:06.163Z</time></trkpt><trkpt lat="45.16163" lon="7.3699"><ele>914.0</ele><time>2026-03-29T11:10:07.165Z</time></trkpt><trkpt lat="45.1617667" lon="7.3699567"><ele>917.6666666666667</ele><time>2026-03-29T11:10:08.163Z</time></trkpt><trkpt lat="45.1619167" lon="7.3700183"><ele>921.3333333333333</ele><time>2026-03-29T11:10:09.162Z</time></trkpt><trkpt lat="45.16207" lon="7.3700867"><ele>925.0</ele><time>2026-03-29T11:10:10.161Z</time></trkpt><trkpt lat="45.16223" lon="7.3701417"><ele>928.0</ele><time>2026-03-29T11:10:11.159Z</time></trkpt><trkpt lat="45.1623867" lon="7.3701733"><ele>931.0</ele><time>2026-03-29T11:10:12.16Z</time></trkpt><trkpt lat="45.1625233" lon="7.3701967"><ele>934.0</ele><time>2026-03-29T11:10:13.162Z</time></trkpt><trkpt lat="45.1626433" lon="7.3701967"><ele>937.0</ele><time>2026-03-29T11:10:14.162Z</time></trkpt><trkpt lat="45.1627317" lon="7.3701367"><ele>937.0</ele><time>2026-03-29T11:10:15.163Z</time></trkpt><trkpt lat="45.16282" lon="7.3700517"><ele>937.0</ele><time>2026-03-29T11:10:16.164Z</time></trkpt><trkpt lat="45.1628967" lon="7.3699717"><ele>937.0</ele><time>2026-03-29T11:10:17.158Z</time></trkpt><trkpt lat="45.16297" lon="7.369945"><ele>937.0</ele><time>2026-03-29T11:10:18.159Z</time></trkpt><trkpt lat="45.16306" lon="7.369945"><ele>937.0</ele><time>2026-03-29T11:10:19.159Z</time></trkpt><trkpt lat="45.1631567" lon="7.369995"><ele>938.5</ele><time>2026-03-29T11:10:20.161Z</time></trkpt><trkpt lat="45.1632483" lon="7.3700517"><ele>940.0</ele><time>2026-03-29T11:10:21.162Z</time></trkpt><trkpt lat="45.1633617" lon="7.370075"><ele>941.5</ele><time>2026-03-29T11:10:22.163Z</time></trkpt><trkpt lat="45.1634867" lon="7.370055"><ele>943.0</ele><time>2026-03-29T11:10:23.158Z</time></trkpt><trkpt lat="45.1636217" lon="7.3700167"><ele>943.0</ele><time>2026-03-29T11:10:24.162Z</time></trkpt><trkpt lat="45.163755" lon="7.3699667"><ele>943.0</ele><time>2026-03-29T11:10:25.165Z</time></trkpt><trkpt lat="45.1638733" lon="7.3699017"><ele>943.0</ele><time>2026-03-29T11:10:26.161Z</time></trkpt><trkpt lat="45.1639717" lon="7.3697967"><ele>943.0</ele><time>2026-03-29T11:10:27.161Z</time></trkpt><trkpt lat="45.1640767" lon="7.369695"><ele>953.75</ele><time>2026-03-29T11:10:28.163Z</time></trkpt><trkpt lat="45.1641983" lon="7.36962"><ele>964.5</ele><time>2026-03-29T11:10:29.159Z</time></trkpt><trkpt lat="45.1643333" lon="7.3695567"><ele>975.25</ele><time>2026-03-29T11:10:30.16Z</time></trkpt><trkpt lat="45.164475" lon="7.3694967"><ele>986.0</ele><time>2026-03-29T11:10:31.161Z</time></trkpt><trkpt lat="45.1646167" lon="7.3694517"><ele>986.0</ele><time>2026-03-29T11:10:32.16Z</time></trkpt><trkpt lat="45.1647617" lon="7.3693883"><ele>986.0</ele><time>2026-03-29T11:10:33.16Z</time></trkpt><trkpt lat="45.1648967" lon="7.3693267"><ele>986.0</ele><time>2026-03-29T11:10:34.158Z</time></trkpt><trkpt lat="45.1650233" lon="7.3692867"><ele>986.0</ele><time>2026-03-29T11:10:35.162Z</time></trkpt><trkpt lat="45.165135" lon="7.369265"><ele>981.25</ele><time>2026-03-29T11:10:36.159Z</time></trkpt><trkpt lat="45.1652417" lon="7.3692267"><ele>976.5</ele><time>2026-03-29T11:10:37.165Z</time></trkpt><trkpt lat="45.1653567" lon="7.369155"><ele>971.75</ele><time>2026-03-29T11:10:38.161Z</time></trkpt><trkpt lat="45.1654817" lon="7.369085"><ele>967.0</ele><time>2026-03-29T11:10:39.166Z</time></trkpt><trkpt lat="45.165625" lon="7.36903"><ele>963.0</ele><time>2026-03-29T11:10:40.16Z</time></trkpt><trkpt lat="45.1657767" lon="7.36897"><ele>959.0</ele><time>2026-03-29T11:10:41.162Z</time></trkpt><trkpt lat="45.1659283" lon="7.36888"><ele>955.0</ele><time>2026-03-29T11:10:42.162Z</time></trkpt><trkpt lat="45.166085" lon="7.3687933"><ele>970.6666666666666</ele><time>2026-03-29T11:10:43.159Z</time></trkpt><trkpt lat="45.1662383" lon="7.3687217"><ele>986.3333333333333</ele><time>2026-03-29T11:10:44.162Z</time></trkpt><trkpt lat="45.1663867" lon="7.3686717"><ele>1002.0</ele><time>2026-03-29T11:10:45.164Z</time></trkpt><trkpt lat="45.1665267" lon="7.3686617"><ele>998.25</ele><time>2026-03-29T11:10:46.161Z</time></trkpt><trkpt lat="45.1666517" lon="7.3686617"><ele>994.5</ele><time>2026-03-29T11:10:47.162Z</time></trkpt><trkpt lat="45.1667767" lon="7.3686233"><ele>990.75</ele><time>2026-03-29T11:10:48.16Z</time></trkpt><trkpt lat="45.1669067" lon="7.36855"><ele>987.0</ele><time>2026-03-29T11:10:49.162Z</time></trkpt><trkpt lat="45.1670417" lon="7.3684933"><ele>987.0</ele><time>2026-03-29T11:10:50.163Z</time></trkpt><trkpt lat="45.1671733" lon="7.36843"><ele>987.0</ele><time>2026-03-29T11:10:51.164Z</time></trkpt><trkpt lat="45.1672917" lon="7.3683567"><ele>987.0</ele><time>2026-03-29T11:10:52.163Z</time></trkpt><trkpt lat="45.1673983" lon="7.3682933"><ele>987.0</ele><time>2026-03-29T11:10:53.163Z</time></trkpt><trkpt lat="45.16748" lon="7.3682483"><ele>985.6666666666666</ele><time>2026-03-29T11:10:54.162Z</time></trkpt><trkpt lat="45.16754" lon="7.3682083"><ele>984.3333333333333</ele><time>2026-03-29T11:10:55.157Z</time></trkpt><trkpt lat="45.1675967" lon="7.36816"><ele>983.0</ele><time>2026-03-29T11:10:58.157Z</time></trkpt><trkpt lat="45.1676733" lon="7.368045"><ele>981.6666666666666</ele><time>2026-03-29T11:11:57.161Z</time></trkpt><trkpt lat="45.1677533" lon="7.36799"><ele>980.3333333333333</ele><time>2026-03-29T11:11:58.163Z</time></trkpt><trkpt lat="45.16785" lon="7.3679433"><ele>979.0</ele><time>2026-03-29T11:11:59.159Z</time></trkpt><trkpt lat="45.167975" lon="7.36792"><ele>981.75</ele><time>2026-03-29T11:12:00.16Z</time></trkpt><trkpt lat="45.1680983" lon="7.3679167"><ele>984.5</ele><time>2026-03-29T11:12:01.161Z</time></trkpt><trkpt lat="45.16822" lon="7.3679633"><ele>987.25</ele><time>2026-03-29T11:12:02.159Z</time></trkpt><trkpt lat="45.1683417" lon="7.3680533"><ele>990.0</ele><time>2026-03-29T11:12:03.158Z</time></trkpt><trkpt lat="45.16846" lon="7.3681783"><ele>990.0</ele><time>2026-03-29T11:12:04.164Z</time></trkpt><trkpt lat="45.1685717" lon="7.3683333"><ele>990.0</ele><time>2026-03-29T11:12:05.157Z</time></trkpt><trkpt lat="45.1686833" lon="7.3684983"><ele>990.0</ele><time>2026-03-29T11:12:06.159Z</time></trkpt><trkpt lat="45.16878" lon="7.36865"><ele>990.0</ele><time>2026-03-29T11:12:07.16Z</time></trkpt><trkpt lat="45.1688717" lon="7.368775"><ele>990.0</ele><time>2026-03-29T11:12:08.163Z</time></trkpt><trkpt lat="45.16895" lon="7.368845"><ele>990.0</ele><time>2026-03-29T11:12:09.161Z</time></trkpt><trkpt lat="45.1690217" lon="7.3688783"><ele>990.0</ele><time>2026-03-29T11:12:10.167Z</time></trkpt><trkpt lat="45.1690717" lon="7.368815"><ele>990.0</ele><time>2026-03-29T11:12:11.167Z</time></trkpt><trkpt lat="45.1691067" lon="7.36873"><ele>990.0</ele><time>2026-03-29T11:12:12.16Z</time></trkpt><trkpt lat="45.1691133" lon="7.3686117"><ele>993.6666666666666</ele><time>2026-03-29T11:12:13.163Z</time></trkpt><trkpt lat="45.1691017" lon="7.3684733"><ele>997.3333333333333</ele><time>2026-03-29T11:12:14.161Z</time></trkpt><trkpt lat="45.1691167" lon="7.3683567"><ele>1001.0</ele><time>2026-03-29T11:12:15.161Z</time></trkpt><trkpt lat="45.16917" lon="7.3682783"><ele>1004.6666666666666</ele><time>2026-03-29T11:12:16.16Z</time></trkpt><trkpt lat="45.1692367" lon="7.3682283"><ele>1008.3333333333333</ele><time>2026-03-29T11:12:17.162Z</time></trkpt><trkpt lat="45.169315" lon="7.3681967"><ele>1012.0</ele><time>2026-03-29T11:12:18.161Z</time></trkpt><trkpt lat="45.1693783" lon="7.3681433"><ele>1012.0000000000001</ele><time>2026-03-29T11:12:19.166Z</time></trkpt><trkpt lat="45.1694067" lon="7.36805"><ele>1012.0</ele><time>2026-03-29T11:12:20.158Z</time></trkpt><trkpt lat="45.1694017" lon="7.3679517"><ele>1012.0000000000001</ele><time>2026-03-29T11:12:21.16Z</time></trkpt><trkpt lat="45.1693583" lon="7.3678617"><ele>1012.0000000000001</ele><time>2026-03-29T11:12:22.163Z</time></trkpt><trkpt lat="45.1692867" lon="7.3678133"><ele>1012.0</ele><time>2026-03-29T11:12:23.16Z</time></trkpt><trkpt lat="45.1692183" lon="7.3677717"><ele>1012.0000000000001</ele><time>2026-03-29T11:12:24.162Z</time></trkpt><trkpt lat="45.1691817" lon="7.3676883"><ele>1012.0000000000001</ele><time>2026-03-29T11:12:25.161Z</time></trkpt><trkpt lat="45.169185" lon="7.36756"><ele>1012.2</ele><time>2026-03-29T11:12:26.159Z</time></trkpt><trkpt lat="45.1692033" lon="7.367425"><ele>1012.4000000000001</ele><time>2026-03-29T11:12:27.161Z</time></trkpt><trkpt lat="45.1692233" lon="7.3672967"><ele>1012.5999999999999</ele><time>2026-03-29T11:12:28.162Z</time></trkpt><trkpt lat="45.1692167" lon="7.3671517"><ele>1012.8</ele><time>2026-03-29T11:12:29.157Z</time></trkpt><trkpt lat="45.1691733" lon="7.3670133"><ele>1013.0</ele><time>2026-03-29T11:12:30.157Z</time></trkpt><trkpt lat="45.1690883" lon="7.3668667"><ele>1014.25</ele><time>2026-03-29T11:12:31.162Z</time></trkpt><trkpt lat="45.1690017" lon="7.3667033"><ele>1015.5</ele><time>2026-03-29T11:12:32.165Z</time></trkpt><trkpt lat="45.1689233" lon="7.3665167"><ele>1016.75</ele><time>2026-03-29T11:12:33.165Z</time></trkpt><trkpt lat="45.1688517" lon="7.3663267"><ele>1018.0</ele><time>2026-03-29T11:12:34.16Z</time></trkpt><trkpt lat="45.1687783" lon="7.36614"><ele>1023.0</ele><time>2026-03-29T11:12:35.161Z</time></trkpt><trkpt lat="45.16871" lon="7.365955"><ele>1028.0</ele><time>2026-03-29T11:12:36.163Z</time></trkpt><trkpt lat="45.168665" lon="7.3657933"><ele>1033.0</ele><time>2026-03-29T11:12:37.162Z</time></trkpt><trkpt lat="45.16865" lon="7.3656483"><ele>1038.0</ele><time>2026-03-29T11:12:38.158Z</time></trkpt><trkpt lat="45.1686633" lon="7.3655383"><ele>1038.0</ele><time>2026-03-29T11:12:39.161Z</time></trkpt><trkpt lat="45.1687767" lon="7.36547"><ele>1038.0</ele><time>2026-03-29T11:12:41.161Z</time></trkpt><trkpt lat="45.1688367" lon="7.3655283"><ele>1038.0</ele><time>2026-03-29T11:12:42.161Z</time></trkpt><trkpt lat="45.1689033" lon="7.3656383"><ele>1038.0</ele><time>2026-03-29T11:12:43.162Z</time></trkpt><trkpt lat="45.16899" lon="7.3657483"><ele>1038.0</ele><time>2026-03-29T11:12:44.161Z</time></trkpt><trkpt lat="45.1690883" lon="7.3658467"><ele>1037.5</ele><time>2026-03-29T11:12:45.16Z</time></trkpt><trkpt lat="45.169205" lon="7.3659033"><ele>1037.0</ele><time>2026-03-29T11:12:46.162Z</time></trkpt><trkpt lat="45.1693283" lon="7.365905"><ele>1036.5</ele><time>2026-03-29T11:12:47.161Z</time></trkpt><trkpt lat="45.1694483" lon="7.3658917"><ele>1036.0</ele><time>2026-03-29T11:12:48.16Z</time></trkpt><trkpt lat="45.1695617" lon="7.3658983"><ele>1036.0</ele><time>2026-03-29T11:12:49.161Z</time></trkpt><trkpt lat="45.169655" lon="7.3659533"><ele>1036.0</ele><time>2026-03-29T11:12:50.158Z</time></trkpt><trkpt lat="45.1697317" lon="7.3660583"><ele>1036.0</ele><time>2026-03-29T11:12:51.161Z</time></trkpt><trkpt lat="45.1697883" lon="7.3661967"><ele>1036.0</ele><time>2026-03-29T11:12:52.164Z</time></trkpt><trkpt lat="45.16986" lon="7.36632"><ele>1036.0</ele><time>2026-03-29T11:12:53.16Z</time></trkpt><trkpt lat="45.169945" lon="7.3664183"><ele>1038.0</ele><time>2026-03-29T11:12:54.163Z</time></trkpt><trkpt lat="45.1700533" lon="7.3664983"><ele>1040.0</ele><time>2026-03-29T11:12:55.163Z</time></trkpt><trkpt lat="45.1701667" lon="7.366595"><ele>1042.0</ele><time>2026-03-29T11:12:56.159Z</time></trkpt><trkpt lat="45.170285" lon="7.3667133"><ele>1044.0</ele><time>2026-03-29T11:12:57.161Z</time></trkpt><trkpt lat="45.1704133" lon="7.3668317"><ele>1044.0</ele><time>2026-03-29T11:12:58.162Z</time></trkpt><trkpt lat="45.1705417" lon="7.36695"><ele>1044.0</ele><time>2026-03-29T11:12:59.163Z</time></trkpt><trkpt lat="45.1706633" lon="7.3670567"><ele>1044.0</ele><time>2026-03-29T11:13:00.159Z</time></trkpt><trkpt lat="45.17077" lon="7.3671483"><ele>1044.0</ele><time>2026-03-29T11:13:01.161Z</time></trkpt><trkpt lat="45.17085" lon="7.3672283"><ele>1041.8</ele><time>2026-03-29T11:13:02.159Z</time></trkpt><trkpt lat="45.1708783" lon="7.3673217"><ele>1039.6000000000001</ele><time>2026-03-29T11:13:03.163Z</time></trkpt><trkpt lat="45.1708717" lon="7.367435"><ele>1037.4</ele><time>2026-03-29T11:13:04.158Z</time></trkpt><trkpt lat="45.1708483" lon="7.367555"><ele>1035.2</ele><time>2026-03-29T11:13:05.163Z</time></trkpt><trkpt lat="45.1707667" lon="7.3676867"><ele>1033.0</ele><time>2026-03-29T11:13:06.158Z</time></trkpt><trkpt lat="45.17067" lon="7.367815"><ele>1033.0</ele><time>2026-03-29T11:13:07.157Z</time></trkpt><trkpt lat="45.1705617" lon="7.3679433"><ele>1033.0</ele><time>2026-03-29T11:13:08.168Z</time></trkpt><trkpt lat="45.1704633" lon="7.3680817"><ele>1033.0</ele><time>2026-03-29T11:13:09.165Z</time></trkpt><trkpt lat="45.1703833" lon="7.3682383"><ele>1033.0</ele><time>2026-03-29T11:13:10.166Z</time></trkpt><trkpt lat="45.1703283" lon="7.3684033"><ele>1035.2</ele><time>2026-03-29T11:13:11.158Z</time></trkpt><trkpt lat="45.1703033" lon="7.3685617"><ele>1037.4</ele><time>2026-03-29T11:13:12.162Z</time></trkpt><trkpt lat="45.1703283" lon="7.3687167"><ele>1039.6000000000001</ele><time>2026-03-29T11:13:13.161Z</time></trkpt><trkpt lat="45.1703683" lon="7.3688483"><ele>1041.8</ele><time>2026-03-29T11:13:14.159Z</time></trkpt><trkpt lat="45.1704017" lon="7.3689917"><ele>1044.0</ele><time>2026-03-29T11:13:15.163Z</time></trkpt><trkpt lat="45.1704083" lon="7.3691267"><ele>1049.25</ele><time>2026-03-29T11:13:16.162Z</time></trkpt><trkpt lat="45.1703617" lon="7.369265"><ele>1054.5</ele><time>2026-03-29T11:13:17.163Z</time></trkpt><trkpt lat="45.1702717" lon="7.3693917"><ele>1059.75</ele><time>2026-03-29T11:13:18.159Z</time></trkpt><trkpt lat="45.1701483" lon="7.3695233"><ele>1065.0</ele><time>2026-03-29T11:13:19.165Z</time></trkpt><trkpt lat="45.1700167" lon="7.3696817"><ele>1060.3333333333333</ele><time>2026-03-29T11:13:20.163Z</time></trkpt><trkpt lat="45.1699017" lon="7.3698533"><ele>1055.6666666666665</ele><time>2026-03-29T11:13:21.161Z</time></trkpt><trkpt lat="45.169765" lon="7.370055"><ele>1051.0</ele><time>2026-03-29T11:13:22.163Z</time></trkpt><trkpt lat="45.1696333" lon="7.3702733"><ele>1051.0</ele><time>2026-03-29T11:13:23.162Z</time></trkpt><trkpt lat="45.1694983" lon="7.3704867"><ele>1051.0</ele><time>2026-03-29T11:13:24.161Z</time></trkpt><trkpt lat="45.1693783" lon="7.3707167"><ele>1051.0</ele><time>2026-03-29T11:13:25.161Z</time></trkpt><trkpt lat="45.1692667" lon="7.3709417"><ele>1062.3333333333333</ele><time>2026-03-29T11:13:26.162Z</time></trkpt><trkpt lat="45.169175" lon="7.3711667"><ele>1073.6666666666667</ele><time>2026-03-29T11:13:27.158Z</time></trkpt><trkpt lat="45.1691067" lon="7.3713783"><ele>1085.0</ele><time>2026-03-29T11:13:28.162Z</time></trkpt><trkpt lat="45.1690317" lon="7.3715567"><ele>1088.0</ele><time>2026-03-29T11:13:29.159Z</time></trkpt><trkpt lat="45.1689483" lon="7.3716867"><ele>1091.0</ele><time>2026-03-29T11:13:30.16Z</time></trkpt><trkpt lat="45.1688433" lon="7.3717583"><ele>1094.0</ele><time>2026-03-29T11:13:31.159Z</time></trkpt><trkpt lat="45.1687183" lon="7.37178"><ele>1097.0</ele><time>2026-03-29T11:13:32.163Z</time></trkpt><trkpt lat="45.1685867" lon="7.3717867"><ele>1097.0</ele><time>2026-03-29T11:13:33.159Z</time></trkpt><trkpt lat="45.1684617" lon="7.37176"><ele>1097.0</ele><time>2026-03-29T11:13:34.16Z</time></trkpt><trkpt lat="45.168345" lon="7.3717617"><ele>1097.0</ele><time>2026-03-29T11:13:35.16Z</time></trkpt><trkpt lat="45.1682517" lon="7.3717933"><ele>1097.0</ele><time>2026-03-29T11:13:36.16Z</time></trkpt><trkpt lat="45.1681733" lon="7.371885"><ele>1097.0</ele><time>2026-03-29T11:13:37.16Z</time></trkpt><trkpt lat="45.168105" lon="7.3720317"><ele>1095.25</ele><time>2026-03-29T11:13:38.162Z</time></trkpt><trkpt lat="45.16804" lon="7.37219"><ele>1093.5</ele><time>2026-03-29T11:13:39.163Z</time></trkpt><trkpt lat="45.1679733" lon="7.3723483"><ele>1091.75</ele><time>2026-03-29T11:13:40.16Z</time></trkpt><trkpt lat="45.1678967" lon="7.3724783"><ele>1090.0</ele><time>2026-03-29T11:13:41.163Z</time></trkpt><trkpt lat="45.1678267" lon="7.3725733"><ele>1090.0</ele><time>2026-03-29T11:13:42.164Z</time></trkpt><trkpt lat="45.1677733" lon="7.372665"><ele>1090.0</ele><time>2026-03-29T11:13:43.16Z</time></trkpt><trkpt lat="45.1677517" lon="7.372765"><ele>1090.0</ele><time>2026-03-29T11:13:44.161Z</time></trkpt><trkpt lat="45.1677567" lon="7.3728617"><ele>1090.0</ele><time>2026-03-29T11:13:45.16Z</time></trkpt><trkpt lat="45.1678367" lon="7.3729433"><ele>1090.0</ele><time>2026-03-29T11:13:46.156Z</time></trkpt><trkpt lat="45.1679183" lon="7.3730233"><ele>1090.0</ele><time>2026-03-29T11:13:47.157Z</time></trkpt><trkpt lat="45.1679883" lon="7.3731317"><ele>1088.75</ele><time>2026-03-29T11:13:48.157Z</time></trkpt><trkpt lat="45.1680517" lon="7.3732633"><ele>1087.5</ele><time>2026-03-29T11:13:49.16Z</time></trkpt><trkpt lat="45.1681067" lon="7.3734133"><ele>1086.25</ele><time>2026-03-29T11:13:50.16Z</time></trkpt><trkpt lat="45.1681417" lon="7.3735833"><ele>1085.0</ele><time>2026-03-29T11:13:51.162Z</time></trkpt><trkpt lat="45.1749717" lon="7.3789183"><ele>1122.3333333333335</ele><time>2026-03-29T11:14:50.158Z</time></trkpt><trkpt lat="45.175005" lon="7.3791667"><ele>1159.6666666666667</ele><time>2026-03-29T11:14:51.166Z</time></trkpt><trkpt lat="45.175035" lon="7.3794317"><ele>1197.0</ele><time>2026-03-29T11:14:52.162Z</time></trkpt><trkpt lat="45.1750683" lon="7.3797083"><ele>1197.0</ele><time>2026-03-29T11:14:53.161Z</time></trkpt><trkpt lat="45.1751167" lon="7.3800017"><ele>1197.0</ele><time>2026-03-29T11:14:54.162Z</time></trkpt><trkpt lat="45.17516" lon="7.3803117"><ele>1197.0</ele><time>2026-03-29T11:14:55.164Z</time></trkpt><trkpt lat="45.1752" lon="7.38063"><ele>1197.5</ele><time>2026-03-29T11:14:56.163Z</time></trkpt><trkpt lat="45.17523" lon="7.3809483"><ele>1198.0</ele><time>2026-03-29T11:14:57.16Z</time></trkpt><trkpt lat="45.175245" lon="7.381275"><ele>1202.0</ele><time>2026-03-29T11:14:58.16Z</time></trkpt><trkpt lat="45.1752583" lon="7.3816083"><ele>1206.0</ele><time>2026-03-29T11:14:59.161Z</time></trkpt><trkpt lat="45.1752633" lon="7.38193"><ele>1207.0</ele><time>2026-03-29T11:15:00.162Z</time></trkpt><trkpt lat="45.17528" lon="7.3822517"><ele>1208.0</ele><time>2026-03-29T11:15:01.159Z</time></trkpt><trkpt lat="45.1753083" lon="7.3825717"><ele>1208.0</ele><time>2026-03-29T11:15:02.159Z</time></trkpt><trkpt lat="45.175345" lon="7.38289"><ele>1208.0</ele><time>2026-03-29T11:15:03.159Z</time></trkpt><trkpt lat="45.17539" lon="7.3832067"><ele>1207.6666666666667</ele><time>2026-03-29T11:15:04.157Z</time></trkpt><trkpt lat="45.175425" lon="7.383485"><ele>1207.3333333333333</ele><time>2026-03-29T11:15:05.159Z</time></trkpt><trkpt lat="45.17543" lon="7.383735"><ele>1207.0</ele><time>2026-03-29T11:15:06.161Z</time></trkpt><trkpt lat="45.175345" lon="7.384225"><ele>1211.6666666666665</ele><time>2026-03-29T11:15:08.162Z</time></trkpt><trkpt lat="45.17528" lon="7.3844767"><ele>1216.3333333333333</ele><time>2026-03-29T11:15:09.157Z</time></trkpt><trkpt lat="45.1752117" lon="7.384735"><ele>1221.0</ele><time>2026-03-29T11:15:10.158Z</time></trkpt><trkpt lat="45.1751433" lon="7.385"><ele>1227.0</ele><time>2026-03-29T11:15:11.158Z</time></trkpt><trkpt lat="45.1750767" lon="7.3852683"><ele>1233.0</ele><time>2026-03-29T11:15:12.16Z</time></trkpt><trkpt lat="45.1750017" lon="7.3855517"><ele>1239.0</ele><time>2026-03-29T11:15:13.162Z</time></trkpt><trkpt lat="45.1749133" lon="7.3858267"><ele>1241.3333333333333</ele><time>2026-03-29T11:15:14.161Z</time></trkpt><trkpt lat="45.1748017" lon="7.3860967"><ele>1243.6666666666665</ele><time>2026-03-29T11:15:15.165Z</time></trkpt><trkpt lat="45.1746817" lon="7.3863667"><ele>1246.0</ele><time>2026-03-29T11:15:16.161Z</time></trkpt><trkpt lat="45.174565" lon="7.3866533"><ele>1246.0</ele><time>2026-03-29T11:15:17.159Z</time></trkpt><trkpt lat="45.1744517" lon="7.386925"><ele>1246.0</ele><time>2026-03-29T11:15:18.158Z</time></trkpt><trkpt lat="45.1743417" lon="7.3871733"><ele>1246.0</ele><time>2026-03-29T11:15:19.161Z</time></trkpt><trkpt lat="45.1742283" lon="7.38738"><ele>1250.25</ele><time>2026-03-29T11:15:20.161Z</time></trkpt><trkpt lat="45.1741133" lon="7.3875367"><ele>1254.5</ele><time>2026-03-29T11:15:21.157Z</time></trkpt><trkpt lat="45.1740033" lon="7.3876483"><ele>1258.75</ele><time>2026-03-29T11:15:22.16Z</time></trkpt><trkpt lat="45.1739167" lon="7.3877383"><ele>1263.0</ele><time>2026-03-29T11:15:23.161Z</time></trkpt><trkpt lat="45.1738667" lon="7.38782"><ele>1263.0</ele><time>2026-03-29T11:15:24.159Z</time></trkpt><trkpt lat="45.1738933" lon="7.3879683"><ele>1263.0</ele><time>2026-03-29T11:15:26.163Z</time></trkpt><trkpt lat="45.1740233" lon="7.3879183"><ele>1263.0</ele><time>2026-03-29T11:15:28.157Z</time></trkpt><trkpt lat="45.17422" lon="7.3876767"><ele>1263.0</ele><time>2026-03-29T11:15:30.161Z</time></trkpt><trkpt lat="45.17435" lon="7.3875233"><ele>1263.0</ele><time>2026-03-29T11:15:31.162Z</time></trkpt><trkpt lat="45.1744967" lon="7.3873667"><ele>1263.0</ele><time>2026-03-29T11:15:32.163Z</time></trkpt><trkpt lat="45.1746617" lon="7.3872017"><ele>1269.5</ele><time>2026-03-29T11:15:33.161Z</time></trkpt><trkpt lat="45.1748467" lon="7.3870167"><ele>1276.0</ele><time>2026-03-29T11:15:34.159Z</time></trkpt><trkpt lat="45.1750417" lon="7.3868117"><ele>1276.0</ele><time>2026-03-29T11:15:35.161Z</time></trkpt><trkpt lat="45.1752333" lon="7.386585"><ele>1276.0</ele><time>2026-03-29T11:15:36.159Z</time></trkpt><trkpt lat="45.1754233" lon="7.3863283"><ele>1284.0</ele><time>2026-03-29T11:15:37.164Z</time></trkpt><trkpt lat="45.1756217" lon="7.3860467"><ele>1292.0</ele><time>2026-03-29T11:15:38.161Z</time></trkpt><trkpt lat="45.1758267" lon="7.3857517"><ele>1283.0</ele><time>2026-03-29T11:15:39.16Z</time></trkpt><trkpt lat="45.176035" lon="7.3854633"><ele>1274.0</ele><time>2026-03-29T11:15:40.161Z</time></trkpt><trkpt lat="45.17625" lon="7.3851683"><ele>1274.0</ele><time>2026-03-29T11:15:41.161Z</time></trkpt><trkpt lat="45.17646" lon="7.3848817"><ele>1274.0</ele><time>2026-03-29T11:15:42.159Z</time></trkpt><trkpt lat="45.1766533" lon="7.3846033"><ele>1283.5</ele><time>2026-03-29T11:15:43.16Z</time></trkpt><trkpt lat="45.1768183" lon="7.384335"><ele>1293.0</ele><time>2026-03-29T11:15:44.161Z</time></trkpt><trkpt lat="45.1769617" lon="7.3840733"><ele>1289.0</ele><time>2026-03-29T11:15:45.159Z</time></trkpt><trkpt lat="45.1770917" lon="7.3838283"><ele>1285.0</ele><time>2026-03-29T11:15:46.16Z</time></trkpt><trkpt lat="45.177215" lon="7.3836083"><ele>1281.0</ele><time>2026-03-29T11:15:47.16Z</time></trkpt><trkpt lat="45.1773283" lon="7.3834083"><ele>1293.5</ele><time>2026-03-29T11:15:48.16Z</time></trkpt><trkpt lat="45.177435" lon="7.38323"><ele>1306.0</ele><time>2026-03-29T11:15:49.162Z</time></trkpt><trkpt lat="45.1776317" lon="7.3829333"><ele>1306.0</ele><time>2026-03-29T11:15:51.161Z</time></trkpt><trkpt lat="45.1777183" lon="7.382815"><ele>1306.0</ele><time>2026-03-29T11:15:52.166Z</time></trkpt><trkpt lat="45.177795" lon="7.3827083"><ele>1306.0</ele><time>2026-03-29T11:15:53.16Z</time></trkpt><trkpt lat="45.17787" lon="7.3826167"><ele>1306.0</ele><time>2026-03-29T11:15:54.16Z</time></trkpt><trkpt lat="45.1779367" lon="7.38255"><ele>1306.0</ele><time>2026-03-29T11:15:55.162Z</time></trkpt><trkpt lat="45.1780067" lon="7.38252"><ele>1306.0</ele><time>2026-03-29T11:15:56.163Z</time></trkpt><trkpt lat="45.178075" lon="7.3825283"><ele>1306.0</ele><time>2026-03-29T11:15:57.16Z</time></trkpt><trkpt lat="45.1781383" lon="7.382565"><ele>1306.0</ele><time>2026-03-29T11:15:58.161Z</time></trkpt><trkpt lat="45.1781983" lon="7.3826183"><ele>1306.0</ele><time>2026-03-29T11:15:59.158Z</time></trkpt><trkpt lat="45.1782567" lon="7.3826783"><ele>1306.0</ele><time>2026-03-29T11:16:00.158Z</time></trkpt><trkpt lat="45.1783167" lon="7.3827233"><ele>1306.0</ele><time>2026-03-29T11:16:01.164Z</time></trkpt><trkpt lat="45.17842" lon="7.3827783"><ele>1306.0</ele><time>2026-03-29T11:16:03.159Z</time></trkpt><trkpt lat="45.1784833" lon="7.382805"><ele>1306.0</ele><time>2026-03-29T11:16:05.163Z</time></trkpt><trkpt lat="45.1784983" lon="7.382715"><ele>1306.0</ele><time>2026-03-29T11:16:11.159Z</time></trkpt><trkpt lat="45.1783383" lon="7.3825317"><ele>1306.0</ele><time>2026-03-29T11:16:48.16Z</time></trkpt><trkpt lat="45.1782683" lon="7.382445"><ele>1306.0</ele><time>2026-03-29T11:16:51.162Z</time></trkpt><trkpt lat="45.1782033" lon="7.3823733"><ele>1306.0</ele><time>2026-03-29T11:16:54.161Z</time></trkpt><trkpt lat="45.1781183" lon="7.382365"><ele>1306.0</ele><time>2026-03-29T11:16:58.161Z</time></trkpt><trkpt lat="45.178025" lon="7.3824233"><ele>1306.0</ele><time>2026-03-29T11:17:00.16Z</time></trkpt><trkpt lat="45.177925" lon="7.3824933"><ele>1306.0</ele><time>2026-03-29T11:17:02.161Z</time></trkpt><trkpt lat="45.17786" lon="7.382485"><ele>1306.0</ele><time>2026-03-29T11:17:04.162Z</time></trkpt><trkpt lat="45.1778317" lon="7.3823983"><ele>1306.0</ele><time>2026-03-29T11:17:07.163Z</time></trkpt></trkseg></trk></gpx>